Deluisi, John (2009): Radiosonde measurements from station Bondville (2001-07) [dataset]. NOAA - Air Resources Laboratory, Boulder, PANGAEA, https://doi.org/10.1594/PANGAEA.719503
Always quote citation above when using data! You can download the citation in several formats below.
Published: 2009-06-15 • DOI registered: 2009-07-14
Other version:
Deluisi, John (2009): BSRN Station-to-archive file for station Bondville (2001-07) [dataset]. ftp://ftp.bsrn.awi.de/bon/bon0701.dat.gz
Project(s):
Coverage:
Latitude: 40.066667 * Longitude: -88.366667
Date/Time Start: 2001-07-01T11:07:00 * Date/Time End: 2001-07-31T11:56:00
Minimum ALTITUDE: 178 m * Maximum ALTITUDE: 16724 m
Event(s):
BON (Bondville) * Latitude: 40.066667 * Longitude: -88.366667 * Date/Time: 1995-01-01T00:00:00 * Elevation: 213.0 m * Location: Illinois, United States of America * Method/Device: Monitoring station (MONS) * Comment: BSRN station no: 32; Surface type: grass; Topography type: flat, rural; Station scientist: John A. Augustine (john.a.augustine@noaa.gov)
Comment:
Version 2, 2009-06-15; Start location: Lincoln, IL; Distance from radiation site: 82 km; If launch time is exactly 00Z or 12Z, the actual launch time is likely unknown
Parameter(s):
| # | Name | Short Name | Unit | Principal Investigator | Method/Device | Comment |
|---|---|---|---|---|---|---|
| 1 | DATE/TIME | Date/Time | Geocode | |||
| 2 | ALTITUDE | Altitude | m | Geocode | ||
| 3 | Pressure, at given altitude | PPPP | hPa | Deluisi, John | Radiosonde, Vaisala, RS80-57H | |
| 4 | Temperature, air | TTT | °C | Deluisi, John | Radiosonde, Vaisala, RS80-57H | |
| 5 | Dew/frost point | TdTdTd | °C | Deluisi, John | Radiosonde, Vaisala, RS80-57H | |
| 6 | Wind direction | dd | deg | Deluisi, John | Radiosonde, Vaisala, RS80-57H | |
| 7 | Wind speed | ff | m/s | Deluisi, John | Radiosonde, Vaisala, RS80-57H |
License:
Size:
6423 data points
Data
| 1 Date/Time | 2 Altitude [m] | 3 PPPP [hPa] | 4 TTT [°C] | 5 TdTdTd [°C] | 6 dd [deg] | 7 ff [m/s] |
|---|---|---|---|---|---|---|
| 2001-07-01T11:07 | 178 | 995 | 21.0 | 18.0 | 240 | 4 |
| 2001-07-01T11:07 | 248 | 987 | 23.6 | 21.0 | ||
| 2001-07-01T11:07 | 328 | 978 | 25.8 | 17.8 | ||
| 2001-07-01T11:09 | 814 | 925 | 22.4 | 15.4 | 275 | 7 |
| 2001-07-01T11:11 | 1543 | 850 | 16.6 | 13.6 | 320 | 6 |
| 2001-07-01T11:12 | 1613 | 843 | 16.2 | 12.6 | ||
| 2001-07-01T11:12 | 1754 | 829 | 15.0 | 13.9 | ||
| 2001-07-01T11:15 | 2469 | 761 | 11.0 | 8.1 | ||
| 2001-07-01T11:16 | 2984 | 715 | 8.6 | -2.4 | ||
| 2001-07-01T11:17 | 3171 | 700 | 7.0 | 0.0 | 315 | 5 |
| 2001-07-01T11:18 | 3564 | 667 | 4.0 | 0.4 | ||
| 2001-07-01T11:22 | 4804 | 571 | -3.9 | -6.7 | ||
| 2001-07-01T11:24 | 5271 | 538 | -4.9 | -11.9 | ||
| 2001-07-01T11:25 | 5763 | 505 | -9.1 | -15.1 | ||
| 2001-07-01T11:25 | 5778 | 504 | -9.3 | -19.3 | ||
| 2001-07-01T11:26 | 5850 | 500 | -9.1 | -19.1 | 300 | 11 |
| 2001-07-01T11:26 | 5927 | 495 | -9.5 | -16.5 | ||
| 2001-07-01T11:26 | 6068 | 486 | -10.3 | -22.3 | ||
| 2001-07-01T11:27 | 6276 | 473 | -12.1 | -17.1 | ||
| 2001-07-01T11:28 | 6438 | 463 | -12.9 | -25.9 | ||
| 2001-07-01T11:28 | 6587 | 454 | -13.9 | -23.9 | ||
| 2001-07-01T11:28 | 6688 | 448 | -14.7 | -27.7 | ||
| 2001-07-01T11:29 | 6841 | 439 | -15.1 | -23.1 | ||
| 2001-07-01T11:29 | 6927 | 434 | -14.7 | -34.7 | ||
| 2001-07-01T11:29 | 7032 | 428 | -15.3 | -35.3 | ||
| 2001-07-01T11:31 | 7550 | 400 | -19.9 | -37.9 | 310 | 12 |
| 2001-07-01T11:33 | 8140 | 369 | -25.3 | -39.3 | ||
| 2001-07-01T11:35 | 8813 | 336 | -29.1 | -47.1 | ||
| 2001-07-01T11:38 | 9610 | 300 | -36.3 | -52.3 | 305 | 14 |
| 2001-07-01T11:42 | 10840 | 250 | -47.9 | -56.9 | ||
| 2001-07-01T11:47 | 12280 | 200 | -59.3 | -66.3 | ||
| 2001-07-01T11:49 | 13112 | 175 | -60.5 | -67.5 | ||
| 2001-07-01T11:52 | 13780 | 157 | -64.3 | -74.3 | ||
| 2001-07-01T11:53 | 14060 | 150 | -62.5 | -73.5 | ||
| 2001-07-01T11:53 | 14143 | 148 | -61.7 | -72.7 | ||
| 2001-07-01T11:57 | 15485 | 119 | -63.1 | -78.1 | ||
| 2001-07-01T12:00 | 16417 | 102 | -69.3 | -83.3 | ||
| 2001-07-01T12:01 | 16530 | 100 | -68.5 | -82.5 | ||
| 2001-07-01T23:00 | 178 | 997 | 23.6 | 15.6 | 50 | 5 |
| 2001-07-01T23:02 | 829 | 925 | 17.6 | 12.6 | 50 | 6 |
| 2001-07-01T23:03 | 1183 | 887 | 14.2 | 11.0 | ||
| 2001-07-01T23:04 | 1546 | 850 | 14.8 | 11.0 | 335 | 8 |
| 2001-07-01T23:05 | 1716 | 833 | 14.4 | 7.4 | ||
| 2001-07-01T23:06 | 1899 | 815 | 13.2 | 6.2 | ||
| 2001-07-01T23:06 | 1950 | 810 | 12.8 | 10.0 | ||
| 2001-07-01T23:06 | 2095 | 796 | 11.8 | 10.4 | ||
| 2001-07-01T23:09 | 2777 | 733 | 8.2 | 5.7 | ||
| 2001-07-01T23:09 | 2981 | 715 | 7.4 | 1.4 | ||
| 2001-07-01T23:10 | 3166 | 700 | 6.6 | 0.6 | 305 | 15 |
| 2001-07-01T23:12 | 3892 | 640 | 2.0 | -3.0 | ||
| 2001-07-01T23:13 | 4159 | 619 | 0.6 | -7.4 | ||
| 2001-07-01T23:14 | 4342 | 605 | 0.6 | -26.4 | ||
| 2001-07-01T23:14 | 4462 | 596 | 0.4 | -31.6 | ||
| 2001-07-01T23:15 | 4887 | 565 | -1.9 | -15.9 | ||
| 2001-07-01T23:19 | 5860 | 500 | -7.7 | -21.7 | ||
| 2001-07-01T23:20 | 6305 | 472 | -10.1 | -26.1 | ||
| 2001-07-01T23:21 | 6570 | 456 | -10.3 | -30.3 | ||
| 2001-07-01T23:24 | 7560 | 400 | -19.5 | -34.5 | ||
| 2001-07-01T23:26 | 8210 | 366 | -25.9 | -36.9 | ||
| 2001-07-01T23:28 | 8843 | 335 | -30.3 | -37.3 | ||
| 2001-07-01T23:31 | 9620 | 300 | -35.7 | -42.7 | ||
| 2001-07-01T23:33 | 10391 | 268 | -42.5 | -47.5 | ||
| 2001-07-01T23:35 | 10860 | 250 | -45.9 | -52.9 | ||
| 2001-07-01T23:40 | 12310 | 200 | -57.9 | -63.9 | ||
| 2001-07-01T23:40 | 12437 | 196 | -59.5 | -65.5 | ||
| 2001-07-01T23:46 | 14090 | 150 | -63.7 | -70.7 | ||
| 2001-07-01T23:46 | 14213 | 147 | -64.3 | -71.3 | ||
| 2001-07-01T23:48 | 14918 | 131 | -63.1 | -71.1 | ||
| 2001-07-01T23:51 | 15866 | 112 | -68.7 | -76.7 | ||
| 2001-07-01T23:52 | 16085 | 108 | -65.7 | -74.7 | ||
| 2001-07-01T23:54 | 16550 | 100 | -67.3 | -76.3 | 325 | 15 |
| 2001-07-02T11:08 | 178 | 1004 | 10.4 | 5.4 | 60 | 3 |
| 2001-07-02T11:08 | 210 | 1000 | 10.8 | 5.8 | 65 | 4 |
| 2001-07-02T11:09 | 446 | 972 | 11.4 | 1.4 | ||
| 2001-07-02T11:10 | 804 | 931 | 10.6 | 2.6 | ||
| 2001-07-02T11:10 | 860 | 925 | 11.2 | -1.8 | 95 | 6 |
| 2001-07-02T11:10 | 887 | 922 | 11.8 | -6.2 | ||
| 2001-07-02T11:11 | 1006 | 909 | 14.4 | -13.6 | ||
| 2001-07-02T11:13 | 1569 | 850 | 11.4 | -11.6 | 360 | 3 |
| 2001-07-02T11:14 | 1990 | 808 | 11.8 | -26.2 | ||
| 2001-07-02T11:16 | 2597 | 751 | 10.6 | -20.4 | ||
| 2001-07-02T11:16 | 2708 | 741 | 10.0 | -16.0 | ||
| 2001-07-02T11:16 | 2753 | 737 | 9.6 | -2.4 | ||
| 2001-07-02T11:17 | 2877 | 726 | 8.4 | -2.6 | ||
| 2001-07-02T11:17 | 2968 | 718 | 7.6 | 1.6 | ||
| 2001-07-02T11:18 | 3181 | 700 | 6.0 | -2.0 | 310 | 12 |
| 2001-07-02T11:18 | 3276 | 692 | 5.2 | 1.3 | ||
| 2001-07-02T11:19 | 3621 | 663 | 2.4 | 1.1 | ||
| 2001-07-02T11:25 | 5460 | 525 | -9.1 | -13.2 | ||
| 2001-07-02T11:27 | 5850 | 500 | -10.1 | -18.1 | 305 | 13 |
| 2001-07-02T11:27 | 5943 | 494 | -10.7 | -20.7 | ||
| 2001-07-02T11:27 | 6037 | 488 | -10.7 | -26.7 | ||
| 2001-07-02T11:30 | 6979 | 431 | -16.3 | -41.3 | ||
| 2001-07-02T11:32 | 7540 | 400 | -20.3 | -46.3 | 295 | 18 |
| 2001-07-02T11:37 | 8913 | 331 | -29.5 | -50.5 | ||
| 2001-07-02T11:39 | 9610 | 300 | -35.3 | -53.3 | 290 | 26 |
| 2001-07-02T11:43 | 10840 | 250 | -47.1 | -54.1 | 290 | 29 |
| 2001-07-02T11:47 | 11936 | 211 | -56.5 | -61.1 | ||
| 2001-07-02T11:48 | 12280 | 200 | -57.9 | -62.6 | 310 | 34 |
| 2001-07-02T11:54 | 14060 | 150 | -63.1 | -70.1 | 315 | 27 |
| 2001-07-02T11:54 | 14354 | 143 | -61.9 | -69.9 | ||
| 2001-07-02T11:58 | 15527 | 118 | -66.3 | -77.3 | ||
| 2001-07-02T12:00 | 15956 | 110 | -61.9 | -74.9 | ||
| 2001-07-02T12:02 | 16550 | 100 | -63.1 | -77.1 | 325 | 12 |
| 2001-07-02T23:05 | 178 | 999 | 24.4 | 9.4 | 150 | 4 |
| 2001-07-02T23:07 | 846 | 925 | 17.0 | 8.0 | 190 | 6 |
| 2001-07-02T23:08 | 1021 | 906 | 15.2 | 7.2 | ||
| 2001-07-02T23:08 | 1133 | 894 | 14.8 | 1.8 | ||
| 2001-07-02T23:08 | 1190 | 888 | 16.8 | -18.2 | ||
| 2001-07-02T23:08 | 1228 | 884 | 17.0 | -21.0 | ||
| 2001-07-02T23:10 | 1563 | 850 | 15.8 | -7.2 | 265 | 4 |
| 2001-07-02T23:10 | 1653 | 841 | 15.0 | 7.0 | ||
| 2001-07-02T23:10 | 1794 | 827 | 14.6 | 9.6 | ||
| 2001-07-02T23:12 | 2262 | 782 | 12.4 | 5.4 | ||
| 2001-07-02T23:13 | 2489 | 761 | 12.8 | 1.8 | ||
| 2001-07-02T23:15 | 3192 | 700 | 7.6 | -1.4 | 300 | 9 |
| 2001-07-02T23:16 | 3599 | 666 | 5.6 | -4.4 | ||
| 2001-07-02T23:18 | 4112 | 625 | 1.6 | -3.4 | ||
| 2001-07-02T23:19 | 4412 | 602 | -0.3 | -8.3 | ||
| 2001-07-02T23:20 | 4858 | 569 | -4.3 | -6.6 | ||
| 2001-07-02T23:22 | 5267 | 540 | -5.9 | -12.9 | ||
| 2001-07-02T23:22 | 5326 | 536 | -6.1 | -18.1 | ||
| 2001-07-02T23:23 | 5681 | 512 | -8.5 | -20.5 | ||
| 2001-07-02T23:23 | 5787 | 505 | -9.7 | -15.7 | ||
| 2001-07-02T23:24 | 5880 | 500 | -9.9 | -17.9 | 310 | 10 |
| 2001-07-02T23:24 | 6019 | 491 | -11.1 | -19.1 | ||
| 2001-07-02T23:24 | 6097 | 486 | -11.5 | -15.5 | ||
| 2001-07-02T23:25 | 6368 | 469 | -13.1 | -16.6 | ||
| 2001-07-02T23:26 | 6499 | 461 | -13.5 | -20.5 | ||
| 2001-07-02T23:28 | 7145 | 423 | -18.3 | -21.9 | ||
| 2001-07-02T23:28 | 7305 | 414 | -19.3 | -26.3 | ||
| 2001-07-02T23:29 | 7560 | 400 | -21.7 | -28.7 | 270 | 16 |
| 2001-07-02T23:30 | 7689 | 393 | -22.7 | -28.7 | ||
| 2001-07-02T23:30 | 7858 | 384 | -24.1 | -33.1 | ||
| 2001-07-02T23:31 | 7972 | 378 | -25.1 | -29.7 | ||
| 2001-07-02T23:31 | 8205 | 366 | -26.7 | -37.7 | ||
| 2001-07-02T23:32 | 8444 | 354 | -28.9 | -38.9 | ||
| 2001-07-02T23:33 | 8668 | 343 | -30.3 | -33.0 | ||
| 2001-07-02T23:33 | 8814 | 336 | -31.3 | -33.5 | ||
| 2001-07-02T23:34 | 9092 | 323 | -32.9 | -35.8 | ||
| 2001-07-02T23:35 | 9312 | 313 | -34.3 | -41.3 | ||
| 2001-07-02T23:35 | 9424 | 308 | -35.1 | -39.7 | ||
| 2001-07-02T23:36 | 9610 | 300 | -35.9 | -41.9 | 275 | 15 |
| 2001-07-02T23:38 | 10182 | 276 | -40.3 | -48.3 | ||
| 2001-07-02T23:40 | 10850 | 250 | -46.1 | -53.1 | 280 | 22 |
| 2001-07-02T23:45 | 12300 | 200 | -56.9 | -65.9 | 275 | 20 |
| 2001-07-02T23:46 | 12556 | 192 | -59.3 | -67.3 | ||
| 2001-07-02T23:51 | 14100 | 150 | -62.7 | -73.7 | 275 | 22 |
| 2001-07-02T23:51 | 14266 | 146 | -63.1 | -74.1 | ||
| 2001-07-02T23:52 | 14526 | 140 | -60.3 | -72.3 | ||
| 2001-07-02T23:55 | 15421 | 121 | -65.3 | -79.3 | ||
| 2001-07-02T23:55 | 15574 | 118 | -62.5 | -76.5 | ||
| 2001-07-02T23:59 | 16590 | 100 | -62.9 | -78.9 | 310 | 8 |
| 2001-07-03T11:11 | 178 | 997 | 18.0 | 13.4 | 210 | 5 |
| 2001-07-03T11:11 | 290 | 984 | 18.8 | 12.8 | ||
| 2001-07-03T11:12 | 440 | 967 | 23.2 | 20.0 | ||
| 2001-07-03T11:13 | 828 | 925 | 21.6 | 19.5 | 255 | 16 |
| 2001-07-03T11:16 | 1558 | 850 | 16.8 | 16.3 | 285 | 12 |
| 2001-07-03T11:17 | 2078 | 799 | 12.8 | 12.8 | ||
| 2001-07-03T11:19 | 2581 | 752 | 9.6 | 9.6 | ||
| 2001-07-03T11:20 | 2781 | 734 | 9.6 | 3.6 | ||
| 2001-07-03T11:21 | 3186 | 700 | 6.8 | 1.8 | 280 | 13 |
| 2001-07-03T11:22 | 3579 | 667 | 4.2 | 2.4 | ||
| 2001-07-03T11:23 | 3926 | 639 | 2.4 | -3.6 | ||
| 2001-07-03T11:28 | 5445 | 527 | -8.5 | -10.4 | ||
| 2001-07-03T11:29 | 5683 | 511 | -9.7 | -14.7 | ||
| 2001-07-03T11:30 | 5860 | 500 | -11.3 | -14.8 | 285 | 14 |
| 2001-07-03T11:31 | 6250 | 475 | -14.7 | -16.1 | ||
| 2001-07-03T11:32 | 6443 | 463 | -14.9 | -20.9 | ||
| 2001-07-03T11:33 | 6741 | 445 | -16.7 | -23.7 | ||
| 2001-07-03T11:33 | 6877 | 437 | -17.1 | -32.1 | ||
| 2001-07-03T11:33 | 7032 | 428 | -18.3 | -28.3 | ||
| 2001-07-03T11:34 | 7137 | 422 | -19.1 | -34.1 | ||
| 2001-07-03T11:35 | 7540 | 400 | -21.7 | -37.7 | 295 | 17 |
| 2001-07-03T11:36 | 7896 | 381 | -23.9 | -38.9 | ||
| 2001-07-03T11:37 | 8208 | 365 | -24.1 | -37.1 | ||
| 2001-07-03T11:41 | 9281 | 314 | -34.1 | -41.1 | ||
| 2001-07-03T11:42 | 9610 | 300 | -35.7 | -48.7 | 320 | 23 |
| 2001-07-03T11:46 | 10850 | 250 | -46.1 | -54.1 | 315 | 28 |
| 2001-07-03T11:49 | 11683 | 220 | -53.9 | -58.6 | ||
| 2001-07-03T11:51 | 12290 | 200 | -58.5 | -62.7 | 320 | 38 |
| 2001-07-03T11:52 | 12676 | 188 | -61.1 | -65.5 | ||
| 2001-07-03T11:57 | 14070 | 150 | -62.7 | -69.7 | 300 | 23 |
| 2001-07-03T11:58 | 14406 | 142 | -63.3 | -71.3 | ||
| 2001-07-03T11:58 | 14582 | 138 | -60.3 | -70.3 | ||
| 2001-07-03T12:03 | 16035 | 109 | -64.1 | -78.1 | ||
| 2001-07-03T12:05 | 16570 | 100 | -63.7 | -78.7 | 325 | 13 |
| 2001-07-06T11:14 | 178 | 999 | 12.2 | 9.4 | 150 | 2 |
| 2001-07-06T11:14 | 262 | 989 | 15.0 | 10.3 | ||
| 2001-07-06T11:15 | 443 | 968 | 17.6 | 7.6 | ||
| 2001-07-06T11:16 | 830 | 925 | 15.6 | 7.6 | 265 | 2 |
| 2001-07-06T11:18 | 1363 | 868 | 11.6 | 5.6 | ||
| 2001-07-06T11:18 | 1498 | 854 | 12.8 | -10.2 | ||
| 2001-07-06T11:18 | 1542 | 850 | 12.8 | -12.2 | 300 | 6 |
| 2001-07-06T11:19 | 1721 | 832 | 14.0 | -19.0 | ||
| 2001-07-06T11:21 | 2398 | 767 | 9.8 | -10.2 | ||
| 2001-07-06T11:22 | 2506 | 757 | 9.8 | -22.2 | ||
| 2001-07-06T11:23 | 2931 | 719 | 9.2 | -30.8 | ||
| 2001-07-06T11:24 | 3158 | 700 | 8.2 | -24.8 | 335 | 10 |
| 2001-07-06T11:25 | 3505 | 671 | 6.4 | -16.6 | ||
| 2001-07-06T11:25 | 3677 | 657 | 6.4 | -30.6 | ||
| 2001-07-06T11:33 | 5850 | 500 | -8.7 | -32.7 | 330 | 18 |
| 2001-07-06T11:38 | 7550 | 400 | -19.7 | -38.7 | 345 | 23 |
| 2001-07-06T11:40 | 8063 | 373 | -24.1 | -31.1 | ||
| 2001-07-06T11:41 | 8502 | 351 | -27.3 | -32.3 | ||
| 2001-07-06T11:42 | 8814 | 336 | -29.7 | -36.7 | ||
| 2001-07-06T11:44 | 9291 | 314 | -33.9 | -37.3 | ||
| 2001-07-06T11:45 | 9610 | 300 | -36.1 | -40.4 | 355 | 33 |
| 2001-07-06T11:49 | 10850 | 250 | -46.3 | -53.3 | 350 | 40 |
| 2001-07-06T11:54 | 12300 | 200 | -56.5 | -63.5 | 360 | 42 |
| 2001-07-06T11:55 | 12622 | 190 | -59.5 | -66.5 | ||
| 2001-07-06T12:00 | 14080 | 150 | -63.5 | -75.5 | 360 | 37 |
| 2001-07-06T12:02 | 14681 | 136 | -62.9 | -75.9 | ||
| 2001-07-06T12:08 | 16560 | 100 | -65.1 | -82.1 | 350 | 17 |
| 2001-07-06T23:01 | 178 | 995 | 24.2 | 13.2 | 160 | 5 |
| 2001-07-06T23:03 | 813 | 925 | 18.6 | 11.6 | 200 | 7 |
| 2001-07-06T23:04 | 1037 | 901 | 17.4 | 10.4 | ||
| 2001-07-06T23:04 | 1218 | 882 | 19.0 | 3.0 | ||
| 2001-07-06T23:05 | 1335 | 870 | 18.2 | 9.2 | ||
| 2001-07-06T23:05 | 1538 | 850 | 18.6 | -6.4 | 275 | 6 |
| 2001-07-06T23:06 | 1823 | 822 | 18.8 | -12.2 | ||
| 2001-07-06T23:09 | 2531 | 756 | 14.4 | 5.4 | ||
| 2001-07-06T23:10 | 2801 | 732 | 12.4 | 1.4 | ||
| 2001-07-06T23:10 | 2950 | 719 | 12.2 | -11.8 | ||
| 2001-07-06T23:11 | 3183 | 700 | 11.2 | -19.8 | 310 | 14 |
| 2001-07-06T23:12 | 3387 | 683 | 11.0 | -21.0 | ||
| 2001-07-06T23:14 | 4076 | 628 | 5.0 | -18.0 | ||
| 2001-07-06T23:16 | 4648 | 585 | 1.4 | -18.6 | ||
| 2001-07-06T23:16 | 4731 | 579 | 1.0 | -11.0 | ||
| 2001-07-06T23:20 | 5900 | 500 | -7.1 | -23.1 | 325 | 16 |
| 2001-07-06T23:21 | 6362 | 471 | -9.7 | -30.7 | ||
| 2001-07-06T23:22 | 6660 | 453 | -12.5 | -17.2 | ||
| 2001-07-06T23:23 | 6864 | 441 | -13.9 | -17.2 | ||
| 2001-07-06T23:23 | 6968 | 435 | -14.3 | -22.3 | ||
| 2001-07-06T23:25 | 7600 | 400 | -18.3 | -26.3 | ||
| 2001-07-06T23:27 | 7980 | 380 | -20.9 | -29.9 | ||
| 2001-07-06T23:27 | 8156 | 371 | -22.5 | -26.3 | ||
| 2001-07-06T23:31 | 9469 | 309 | -31.9 | -34.9 | ||
| 2001-07-06T23:32 | 9690 | 300 | -32.7 | -37.6 | ||
| 2001-07-06T23:33 | 9832 | 294 | -33.7 | -40.7 | ||
| 2001-07-06T23:35 | 10523 | 266 | -39.5 | -45.5 | ||
| 2001-07-06T23:36 | 10940 | 250 | -42.9 | -51.9 | ||
| 2001-07-06T23:37 | 11185 | 241 | -44.9 | -55.9 | ||
| 2001-07-06T23:41 | 12410 | 200 | -55.9 | -66.9 | ||
| 2001-07-06T23:43 | 13036 | 181 | -60.9 | -70.9 | ||
| 2001-07-06T23:47 | 14190 | 150 | -65.7 | -74.7 | 355 | 12 |
| 2001-07-06T23:55 | 16620 | 100 | -67.1 | -79.1 | 360 | 12 |
| 2001-07-07T11:05 | 178 | 992 | 19.8 | 18.3 | 200 | 5 |
| 2001-07-07T11:07 | 643 | 940 | 25.8 | 21.1 | ||
| 2001-07-07T11:07 | 790 | 925 | 26.0 | 20.0 | 260 | 23 |
| 2001-07-07T11:08 | 943 | 909 | 27.0 | 12.0 | ||
| 2001-07-07T11:09 | 1287 | 874 | 26.4 | 7.4 | ||
| 2001-07-07T11:09 | 1337 | 869 | 25.4 | 14.4 | ||
| 2001-07-07T11:09 | 1535 | 850 | 23.8 | 14.8 | 275 | 18 |
| 2001-07-07T11:11 | 2069 | 799 | 21.0 | 10.0 | ||
| 2001-07-07T11:15 | 3201 | 700 | 11.0 | 7.1 | 300 | 12 |
| 2001-07-07T11:17 | 3711 | 658 | 6.8 | 5.9 | ||
| 2001-07-07T11:18 | 4078 | 629 | 5.0 | -3.0 | ||
| 2001-07-07T11:20 | 4609 | 589 | 2.0 | -1.6 | ||
| 2001-07-07T11:21 | 5111 | 553 | -3.1 | -3.1 | ||
| 2001-07-07T11:21 | 5197 | 547 | -3.7 | -3.7 | ||
| 2001-07-07T11:22 | 5284 | 541 | -3.5 | -8.3 | ||
| 2001-07-07T11:23 | 5685 | 514 | -6.7 | -10.1 | ||
| 2001-07-07T11:24 | 5920 | 500 | -7.7 | -12.7 | 325 | 15 |
| 2001-07-07T11:24 | 6124 | 487 | -8.9 | -15.9 | ||
| 2001-07-07T11:25 | 6188 | 483 | -9.3 | -13.1 | ||
| 2001-07-07T11:26 | 6447 | 467 | -10.7 | -14.9 | ||
| 2001-07-07T11:27 | 6833 | 444 | -12.5 | -23.5 | ||
| 2001-07-07T11:28 | 7129 | 427 | -14.9 | -27.9 | ||
| 2001-07-07T11:29 | 7416 | 411 | -17.3 | -23.3 | ||
| 2001-07-07T11:29 | 7620 | 400 | -18.7 | -28.7 | 320 | 14 |
| 2001-07-07T11:30 | 7657 | 398 | -18.7 | -32.7 | ||
| 2001-07-07T11:30 | 7770 | 392 | -19.3 | -28.3 | ||
| 2001-07-07T11:33 | 8808 | 340 | -27.5 | -34.5 | ||
| 2001-07-07T11:36 | 9700 | 300 | -33.5 | -47.5 | 335 | 15 |
| 2001-07-07T11:40 | 10950 | 250 | -43.3 | -56.3 | 350 | 21 |
| 2001-07-07T11:43 | 11736 | 222 | -49.7 | -62.7 | ||
| 2001-07-07T11:45 | 12420 | 200 | -54.5 | -64.5 | ||
| 2001-07-07T11:51 | 14200 | 150 | -69.3 | -74.3 | ||
| 2001-07-07T11:55 | 15374 | 123 | -71.7 | -77.7 | ||
| 2001-07-07T11:56 | 15620 | 118 | -68.5 | -74.5 | ||
| 2001-07-07T11:59 | 16610 | 100 | -68.5 | -76.5 | ||
| 2001-07-07T23:01 | 178 | 990 | 34.0 | 25.0 | 230 | 7 |
| 2001-07-07T23:03 | 792 | 925 | 27.8 | 22.8 | 255 | 8 |
| 2001-07-07T23:05 | 1286 | 874 | 22.8 | 20.7 | ||
| 2001-07-07T23:05 | 1496 | 853 | 21.6 | 19.0 | ||
| 2001-07-07T23:05 | 1536 | 850 | 22.8 | 17.8 | 275 | 9 |
| 2001-07-07T23:06 | 1597 | 844 | 24.8 | 11.8 | ||
| 2001-07-07T23:06 | 1795 | 825 | 24.2 | 10.2 | ||
| 2001-07-07T23:11 | 3208 | 700 | 13.2 | 0.2 | 285 | 16 |
| 2001-07-07T23:14 | 4038 | 633 | 5.8 | -2.2 | ||
| 2001-07-07T23:15 | 4418 | 604 | 3.6 | -0.4 | ||
| 2001-07-07T23:18 | 5284 | 542 | -2.5 | -7.5 | ||
| 2001-07-07T23:20 | 5930 | 500 | -7.1 | -11.5 | 295 | 17 |
| 2001-07-07T23:21 | 6358 | 473 | -10.7 | -12.9 | ||
| 2001-07-07T23:23 | 6772 | 448 | -13.9 | -17.7 | ||
| 2001-07-07T23:25 | 7492 | 407 | -18.7 | -30.7 | ||
| 2001-07-07T23:25 | 7630 | 400 | -18.7 | -22.6 | 300 | 16 |
| 2001-07-07T23:27 | 8010 | 380 | -20.3 | -23.1 | ||
| 2001-07-07T23:32 | 9720 | 300 | -31.9 | -34.9 | 295 | 18 |
| 2001-07-07T23:33 | 10031 | 287 | -34.3 | -42.3 | ||
| 2001-07-07T23:35 | 10608 | 264 | -38.7 | -51.7 | ||
| 2001-07-07T23:36 | 10980 | 250 | -41.9 | -52.9 | 300 | 9 |
| 2001-07-07T23:41 | 12450 | 200 | -54.1 | -61.1 | 310 | 12 |
| 2001-07-07T23:43 | 12910 | 186 | -58.3 | -64.3 | ||
| 2001-07-07T23:47 | 14240 | 150 | -68.9 | -73.9 | 290 | 11 |
| 2001-07-07T23:51 | 15476 | 122 | -67.9 | -72.9 | ||
| 2001-07-07T23:55 | 16650 | 100 | -68.7 | -74.7 | 340 | 9 |
| 2001-07-08T11:01 | 178 | 992 | 23.8 | 22.8 | 220 | 3 |
| 2001-07-08T11:01 | 240 | 985 | 26.8 | 23.1 | ||
| 2001-07-08T11:03 | 800 | 925 | 25.8 | 19.8 | 285 | 16 |
| 2001-07-08T11:04 | 943 | 910 | 26.4 | 17.4 | ||
| 2001-07-08T11:05 | 1276 | 876 | 24.6 | 15.6 | ||
| 2001-07-08T11:05 | 1543 | 850 | 22.0 | 16.0 | 300 | 11 |
| 2001-07-08T11:07 | 2084 | 798 | 18.2 | 14.2 | ||
| 2001-07-08T11:08 | 2310 | 777 | 16.6 | 12.6 | ||
| 2001-07-08T11:09 | 2519 | 758 | 16.2 | 6.2 | ||
| 2001-07-08T11:10 | 2905 | 724 | 13.0 | 7.0 | ||
| 2001-07-08T11:11 | 3200 | 700 | 11.0 | 3.0 | 275 | 11 |
| 2001-07-08T11:12 | 3416 | 682 | 9.4 | -1.6 | ||
| 2001-07-08T11:12 | 3538 | 672 | 8.6 | 1.6 | ||
| 2001-07-08T11:13 | 3937 | 640 | 5.6 | -1.4 | ||
| 2001-07-08T11:14 | 4117 | 626 | 5.2 | -5.8 | ||
| 2001-07-08T11:15 | 4300 | 612 | 3.6 | -3.4 | ||
| 2001-07-08T11:15 | 4393 | 605 | 3.2 | -6.8 | ||
| 2001-07-08T11:15 | 4527 | 595 | 2.2 | -2.8 | ||
| 2001-07-08T11:17 | 5084 | 555 | -0.7 | -10.7 | ||
| 2001-07-08T11:18 | 5301 | 540 | -2.5 | -11.5 | ||
| 2001-07-08T11:19 | 5598 | 520 | -5.3 | -8.5 | ||
| 2001-07-08T11:19 | 5643 | 517 | -5.5 | -9.9 | ||
| 2001-07-08T11:19 | 5673 | 515 | -5.3 | -14.3 | ||
| 2001-07-08T11:20 | 5920 | 500 | -6.7 | -11.7 | 315 | 14 |
| 2001-07-08T11:21 | 6252 | 479 | -9.5 | -14.5 | ||
| 2001-07-08T11:21 | 6300 | 476 | -9.5 | -19.5 | ||
| 2001-07-08T11:22 | 6463 | 466 | -10.5 | -20.5 | ||
| 2001-07-08T11:22 | 6579 | 459 | -10.9 | -31.9 | ||
| 2001-07-08T11:22 | 6663 | 454 | -11.1 | -34.1 | ||
| 2001-07-08T11:22 | 6714 | 451 | -11.5 | -26.5 | ||
| 2001-07-08T11:23 | 6833 | 444 | -12.3 | -32.3 | ||
| 2001-07-08T11:23 | 6885 | 441 | -12.9 | -23.9 | ||
| 2001-07-08T11:24 | 7059 | 431 | -13.7 | -22.7 | ||
| 2001-07-08T11:25 | 7620 | 400 | -17.7 | -28.7 | 305 | 13 |
| 2001-07-08T11:27 | 7962 | 382 | -19.5 | -34.5 | ||
| 2001-07-08T11:30 | 9156 | 324 | -30.1 | -40.1 | ||
| 2001-07-08T11:32 | 9560 | 306 | -32.3 | -53.3 | ||
| 2001-07-08T11:32 | 9710 | 300 | -33.7 | -52.7 | 310 | 14 |
| 2001-07-08T11:33 | 10018 | 287 | -35.9 | -49.9 | ||
| 2001-07-08T11:36 | 10960 | 250 | -42.7 | -59.7 | 315 | 13 |
| 2001-07-08T11:38 | 11487 | 231 | -46.7 | -62.7 | ||
| 2001-07-08T11:40 | 11928 | 216 | -49.9 | -55.9 | ||
| 2001-07-08T11:41 | 12430 | 200 | -54.1 | -58.6 | 340 | 17 |
| 2001-07-08T11:47 | 14220 | 150 | -67.3 | -73.3 | 320 | 18 |
| 2001-07-08T11:52 | 15653 | 118 | -69.9 | -76.9 | ||
| 2001-07-08T11:55 | 16620 | 100 | -70.5 | -78.5 | ||
| 2001-07-08T23:00 | 178 | 989 | 28.8 | 23.8 | 140 | 3 |
| 2001-07-08T23:01 | 358 | 969 | 28.0 | 23.5 | ||
| 2001-07-08T23:01 | 514 | 952 | 30.2 | 16.2 | ||
| 2001-07-08T23:02 | 778 | 925 | 28.4 | 13.4 | 205 | 3 |
| 2001-07-08T23:03 | 951 | 907 | 26.6 | 12.6 | ||
| 2001-07-08T23:04 | 1255 | 876 | 25.8 | 14.8 | ||
| 2001-07-08T23:04 | 1524 | 850 | 24.8 | 8.8 | 310 | 9 |
| 2001-07-08T23:05 | 1752 | 828 | 23.8 | 7.8 | ||
| 2001-07-08T23:08 | 2509 | 758 | 16.6 | 8.6 | ||
| 2001-07-08T23:09 | 2884 | 725 | 13.6 | 3.6 | ||
| 2001-07-08T23:10 | 3188 | 700 | 11.2 | 4.2 | 295 | 14 |
| 2001-07-08T23:13 | 4129 | 624 | 3.4 | 1.7 | ||
| 2001-07-08T23:14 | 4458 | 599 | 1.8 | -2.1 | ||
| 2001-07-08T23:15 | 4882 | 568 | -1.7 | -4.4 | ||
| 2001-07-08T23:16 | 4966 | 562 | -1.3 | -6.3 | ||
| 2001-07-08T23:19 | 5900 | 500 | -8.5 | -11.5 | 290 | 25 |
| 2001-07-08T23:20 | 6168 | 483 | -7.9 | -10.7 | ||
| 2001-07-08T23:22 | 6780 | 446 | -12.5 | -12.9 | ||
| 2001-07-08T23:24 | 7610 | 400 | -17.1 | -18.2 | 320 | 15 |
| 2001-07-08T23:31 | 9710 | 300 | -30.7 | -34.8 | 300 | 14 |
| 2001-07-08T23:34 | 10397 | 272 | -35.7 | -42.7 | ||
| 2001-07-08T23:35 | 10980 | 250 | -40.3 | -45.2 | 295 | 16 |
| 2001-07-08T23:38 | 11805 | 221 | -47.7 | -50.9 | ||
| 2001-07-08T23:40 | 12460 | 200 | -53.3 | -56.5 | 315 | 15 |
| 2001-07-08T23:46 | 14250 | 150 | -67.7 | -71.4 | 255 | 7 |
| 2001-07-08T23:47 | 14535 | 143 | -70.1 | -73.8 | ||
| 2001-07-08T23:50 | 15574 | 120 | -70.5 | -74.8 | ||
| 2001-07-08T23:52 | 16086 | 110 | -72.5 | -77.0 | ||
| 2001-07-08T23:53 | 16306 | 106 | -67.3 | -72.3 | ||
| 2001-07-08T23:54 | 16650 | 100 | -66.1 | -72.1 | 345 | 7 |
| 2001-07-09T11:11 | 178 | 991 | 22.2 | 22.2 | 170 | 2 |
| 2001-07-09T11:12 | 390 | 967 | 24.4 | 24.1 | ||
| 2001-07-09T11:13 | 779 | 925 | 24.2 | 19.2 | 315 | 5 |
| 2001-07-09T11:15 | 1516 | 850 | 20.0 | 14.0 | 305 | 9 |
| 2001-07-09T11:16 | 1833 | 819 | 18.8 | 10.8 | ||
| 2001-07-09T11:21 | 3165 | 700 | 10.2 | 3.2 | 315 | 9 |
| 2001-07-09T11:22 | 3599 | 664 | 7.0 | 0.0 | ||
| 2001-07-09T11:24 | 4221 | 615 | 2.4 | -0.2 | ||
| 2001-07-09T11:27 | 5111 | 550 | -2.7 | -6.0 | ||
| 2001-07-09T11:29 | 5568 | 519 | -4.1 | -12.1 | ||
| 2001-07-09T11:30 | 5880 | 500 | -6.3 | -14.3 | 315 | 11 |
| 2001-07-09T11:31 | 6327 | 472 | -9.3 | -19.3 | ||
| 2001-07-09T11:33 | 6918 | 437 | -11.5 | -27.5 | ||
| 2001-07-09T11:34 | 7059 | 429 | -12.7 | -24.7 | ||
| 2001-07-09T11:35 | 7347 | 413 | -14.9 | -33.9 | ||
| 2001-07-09T11:35 | 7590 | 400 | -17.3 | -28.3 | ||
| 2001-07-09T11:36 | 7817 | 388 | -19.3 | -29.3 | ||
| 2001-07-09T11:37 | 8248 | 366 | -21.5 | -39.5 | ||
| 2001-07-09T11:39 | 8766 | 341 | -23.7 | -38.7 | ||
| 2001-07-09T11:41 | 9293 | 317 | -28.1 | -48.1 | ||
| 2001-07-09T11:42 | 9690 | 300 | -31.1 | -46.1 | ||
| 2001-07-09T11:46 | 10950 | 250 | -41.5 | -53.5 | ||
| 2001-07-09T11:47 | 11281 | 238 | -44.5 | -54.5 | ||
| 2001-07-09T11:51 | 12430 | 200 | -52.9 | -63.9 | ||
| 2001-07-09T11:57 | 14220 | 150 | -66.9 | -73.9 | ||
| 2001-07-09T12:05 | 16656 | 100 | -69.1 | -76.1 | ||
| 2001-07-09T23:08 | 178 | 990 | 31.2 | 22.2 | 10 | 5 |
| 2001-07-09T23:10 | 782 | 925 | 25.4 | 20.4 | 20 | 4 |
| 2001-07-09T23:11 | 1088 | 893 | 22.8 | 17.8 | ||
| 2001-07-09T23:11 | 1215 | 880 | 22.4 | 13.4 | ||
| 2001-07-09T23:12 | 1520 | 850 | 19.6 | 13.6 | 355 | 5 |
| 2001-07-09T23:13 | 1733 | 829 | 18.0 | 12.0 | ||
| 2001-07-09T23:14 | 2131 | 791 | 16.6 | -4.4 | ||
| 2001-07-09T23:15 | 2206 | 784 | 15.8 | 0.8 | ||
| 2001-07-09T23:16 | 2524 | 755 | 15.0 | -12.0 | ||
| 2001-07-09T23:18 | 3165 | 700 | 11.4 | -20.6 | 320 | 8 |
| 2001-07-09T23:19 | 3430 | 678 | 10.2 | -24.8 | ||
| 2001-07-09T23:22 | 4454 | 598 | 2.2 | -25.8 | ||
| 2001-07-09T23:22 | 4562 | 590 | 1.8 | -16.2 | ||
| 2001-07-09T23:23 | 4866 | 568 | -0.9 | -18.9 | ||
| 2001-07-09T23:24 | 4936 | 563 | -0.7 | -9.7 | ||
| 2001-07-09T23:26 | 5653 | 514 | -6.3 | -12.3 | ||
| 2001-07-09T23:27 | 5880 | 500 | -6.9 | -17.9 | 320 | 16 |
| 2001-07-09T23:27 | 5958 | 495 | -7.5 | -13.5 | ||
| 2001-07-09T23:28 | 6148 | 483 | -8.7 | -15.7 | ||
| 2001-07-09T23:28 | 6228 | 478 | -9.1 | -25.1 | ||
| 2001-07-09T23:28 | 6358 | 470 | -9.9 | -14.9 | ||
| 2001-07-09T23:29 | 6440 | 465 | -10.3 | -16.3 | ||
| 2001-07-09T23:29 | 6573 | 457 | -9.7 | -26.7 | ||
| 2001-07-09T23:30 | 6743 | 447 | -10.5 | -23.5 | ||
| 2001-07-09T23:32 | 7590 | 400 | -16.3 | -34.3 | ||
| 2001-07-09T23:34 | 8032 | 377 | -19.1 | -37.1 | ||
| 2001-07-09T23:34 | 8211 | 368 | -20.1 | -33.1 | ||
| 2001-07-09T23:35 | 8332 | 362 | -21.3 | -37.3 | ||
| 2001-07-09T23:35 | 8414 | 358 | -21.9 | -31.9 | ||
| 2001-07-09T23:36 | 8834 | 338 | -24.1 | -38.1 | ||
| 2001-07-09T23:39 | 9690 | 300 | -31.1 | -42.1 | ||
| 2001-07-09T23:41 | 10348 | 273 | -37.5 | -45.5 | ||
| 2001-07-09T23:43 | 10960 | 250 | -42.3 | -51.3 | ||
| 2001-07-09T23:46 | 11751 | 222 | -48.1 | -60.1 | ||
| 2001-07-09T23:48 | 12430 | 200 | -53.9 | -63.9 | ||
| 2001-07-09T23:49 | 12657 | 193 | -55.7 | -64.7 | ||
| 2001-07-09T23:54 | 14220 | 150 | -66.7 | -75.7 | 285 | 25 |
| 2001-07-10T00:00 | 15978 | 112 | -67.5 | -76.5 | ||
| 2001-07-10T00:02 | 16640 | 100 | -68.9 | -79.9 | 275 | 7 |
| 2001-07-10T11:05 | 178 | 990 | 20.0 | 20.0 | 340 | 2 |
| 2001-07-10T11:06 | 363 | 969 | 26.2 | 21.2 | ||
| 2001-07-10T11:07 | 776 | 925 | 23.6 | 19.4 | 285 | 2 |
| 2001-07-10T11:08 | 1090 | 892 | 21.6 | 15.6 | ||
| 2001-07-10T11:09 | 1304 | 870 | 19.4 | 15.7 | ||
| 2001-07-10T11:09 | 1510 | 850 | 18.4 | 12.4 | 310 | 2 |
| 2001-07-10T11:10 | 1837 | 818 | 18.4 | -3.6 | ||
| 2001-07-10T11:15 | 3149 | 700 | 8.8 | -3.2 | 335 | 6 |
| 2001-07-10T11:16 | 3411 | 678 | 7.0 | -3.0 | ||
| 2001-07-10T11:16 | 3472 | 673 | 7.0 | -9.0 | ||
| 2001-07-10T11:16 | 3668 | 657 | 5.8 | -9.2 | ||
| 2001-07-10T11:17 | 3705 | 654 | 6.0 | -17.0 | ||
| 2001-07-10T11:17 | 3881 | 640 | 4.6 | -4.4 | ||
| 2001-07-10T11:18 | 4086 | 624 | 3.2 | -4.8 | ||
| 2001-07-10T11:19 | 4348 | 604 | 1.6 | -8.4 | ||
| 2001-07-10T11:19 | 4376 | 602 | 1.6 | -15.4 | ||
| 2001-07-10T11:19 | 4455 | 596 | 1.4 | -10.6 | ||
| 2001-07-10T11:21 | 4981 | 558 | -0.9 | -17.9 | ||
| 2001-07-10T11:22 | 5314 | 535 | -3.7 | -16.7 | ||
| 2001-07-10T11:23 | 5689 | 510 | -5.3 | -25.3 | ||
| 2001-07-10T11:24 | 5860 | 500 | -5.7 | -20.7 | 310 | 12 |
| 2001-07-10T11:25 | 6129 | 483 | -8.1 | -18.1 | ||
| 2001-07-10T11:29 | 7570 | 400 | -16.9 | -33.9 | 320 | 16 |
| 2001-07-10T11:30 | 7683 | 394 | -17.9 | -34.9 | ||
| 2001-07-10T11:30 | 7876 | 384 | -17.5 | -38.5 | ||
| 2001-07-10T11:32 | 8497 | 353 | -22.5 | -44.5 | ||
| 2001-07-10T11:36 | 9670 | 300 | -32.3 | -44.3 | 310 | 23 |
| 2001-07-10T11:40 | 10930 | 250 | -41.9 | -54.9 | ||
| 2001-07-10T11:43 | 11810 | 219 | -49.1 | -56.1 | ||
| 2001-07-10T11:45 | 12400 | 200 | -54.1 | -61.1 | ||
| 2001-07-10T11:51 | 14190 | 150 | -67.1 | -76.1 | ||
| 2001-07-10T11:52 | 14434 | 144 | -69.5 | -77.5 | ||
| 2001-07-10T11:57 | 15987 | 111 | -68.1 | -76.1 | ||
| 2001-07-10T11:59 | 16600 | 100 | -68.5 | -77.5 | ||
| 2001-07-10T23:06 | 178 | 988 | 32.0 | 19.0 | 330 | 4 |
| 2001-07-10T23:08 | 769 | 925 | 26.0 | 18.0 | 325 | 7 |
| 2001-07-10T23:10 | 1506 | 850 | 18.6 | 16.4 | 325 | 7 |
| 2001-07-10T23:11 | 1780 | 823 | 16.0 | 16.0 | ||
| 2001-07-10T23:11 | 1852 | 816 | 15.6 | 15.6 | ||
| 2001-07-10T23:12 | 1926 | 809 | 15.4 | 11.4 | ||
| 2001-07-10T23:12 | 2072 | 795 | 14.4 | 11.2 | ||
| 2001-07-10T23:13 | 2232 | 780 | 14.6 | 7.6 | ||
| 2001-07-10T23:13 | 2351 | 769 | 13.4 | 5.4 | ||
| 2001-07-10T23:13 | 2395 | 765 | 12.8 | 7.8 | ||
| 2001-07-10T23:13 | 2417 | 763 | 12.4 | 4.4 | ||
| 2001-07-10T23:14 | 2472 | 758 | 13.0 | 7.0 | ||
| 2001-07-10T23:14 | 2538 | 752 | 13.0 | -7.0 | ||
| 2001-07-10T23:15 | 2947 | 716 | 11.4 | -19.6 | ||
| 2001-07-10T23:16 | 3145 | 700 | 9.8 | -7.2 | 325 | 13 |
| 2001-07-10T23:16 | 3312 | 686 | 8.8 | -16.2 | ||
| 2001-07-10T23:18 | 3753 | 650 | 5.2 | -15.8 | ||
| 2001-07-10T23:20 | 4402 | 600 | 3.8 | -27.2 | ||
| 2001-07-10T23:21 | 4661 | 581 | 1.6 | -9.4 | ||
| 2001-07-10T23:22 | 4913 | 563 | 0.0 | -24.0 | ||
| 2001-07-10T23:25 | 5860 | 500 | -6.1 | -16.1 | ||
| 2001-07-10T23:28 | 6966 | 433 | -13.7 | -20.7 | ||
| 2001-07-10T23:29 | 7197 | 420 | -14.5 | -27.5 | ||
| 2001-07-10T23:30 | 7570 | 400 | -16.5 | -32.5 | ||
| 2001-07-10T23:31 | 7817 | 387 | -18.3 | -27.3 | ||
| 2001-07-10T23:34 | 8580 | 349 | -22.5 | -33.5 | ||
| 2001-07-10T23:37 | 9670 | 300 | -31.3 | -41.3 | ||
| 2001-07-10T23:38 | 10031 | 285 | -33.3 | -46.3 | ||
| 2001-07-10T23:41 | 10940 | 250 | -41.7 | -48.7 | ||
| 2001-07-10T23:43 | 11412 | 233 | -45.7 | -52.7 | ||
| 2001-07-10T23:44 | 11881 | 217 | -49.1 | -61.1 | ||
| 2001-07-10T23:46 | 12410 | 200 | -52.3 | -64.3 | 300 | 34 |
| 2001-07-10T23:51 | 13963 | 156 | -65.9 | -74.9 | ||
| 2001-07-10T23:52 | 14210 | 150 | -66.9 | -74.9 | 295 | 28 |
| 2001-07-10T23:56 | 15451 | 122 | -67.9 | -75.9 | ||
| 2001-07-11T00:00 | 16630 | 100 | -68.5 | -77.5 | 300 | 11 |
| 2001-07-11T10:59 | 178 | 993 | 17.2 | 14.5 | 40 | 5 |
| 2001-07-11T11:00 | 510 | 955 | 20.0 | 8.0 | ||
| 2001-07-11T11:01 | 788 | 925 | 18.8 | 7.8 | 70 | 12 |
| 2001-07-11T11:02 | 1136 | 888 | 18.6 | 10.6 | ||
| 2001-07-11T11:03 | 1512 | 850 | 16.2 | 10.2 | 340 | 6 |
| 2001-07-11T11:06 | 2166 | 786 | 9.8 | 7.6 | ||
| 2001-07-11T11:06 | 2261 | 777 | 11.0 | -2.0 | ||
| 2001-07-11T11:06 | 2412 | 763 | 11.4 | -9.6 | ||
| 2001-07-11T11:08 | 2927 | 717 | 9.0 | -12.0 | ||
| 2001-07-11T11:08 | 3054 | 706 | 7.8 | -7.2 | ||
| 2001-07-11T11:09 | 3134 | 700 | 7.6 | -9.4 | 315 | 13 |
| 2001-07-11T11:10 | 3566 | 664 | 6.6 | -21.4 | ||
| 2001-07-11T11:11 | 3752 | 649 | 6.0 | -14.0 | ||
| 2001-07-11T11:16 | 5372 | 530 | -4.5 | -31.5 | ||
| 2001-07-11T11:18 | 5840 | 500 | -7.3 | -20.3 | 315 | 15 |
| 2001-07-11T11:19 | 6302 | 471 | -9.9 | -33.9 | ||
| 2001-07-11T11:22 | 7336 | 411 | -16.9 | -25.9 | ||
| 2001-07-11T11:23 | 7540 | 400 | -17.7 | -25.7 | 335 | 21 |
| 2001-07-11T11:24 | 7786 | 387 | -18.5 | -28.5 | ||
| 2001-07-11T11:26 | 8421 | 355 | -23.5 | -30.5 | ||
| 2001-07-11T11:27 | 8735 | 340 | -24.3 | -36.3 | ||
| 2001-07-11T11:30 | 9640 | 300 | -32.5 | -41.5 | ||
| 2001-07-11T11:31 | 9901 | 289 | -35.3 | -42.3 | ||
| 2001-07-11T11:34 | 10782 | 250 | ||||
| 2001-07-11T11:38 | 12180 | 200 | ||||
| 2001-07-11T11:41 | 13124 | 177 | -60.9 | -69.9 | ||
| 2001-07-11T11:44 | 13983 | 150 | ||||
| 2001-07-11T11:47 | 14770 | 135 | -69.3 | -78.3 | ||
| 2001-07-11T11:53 | 16524 | 100 | ||||
| 2001-07-11T23:03 | 178 | 993 | 25.6 | 12.6 | 80 | 6 |
| 2001-07-11T23:05 | 796 | 925 | 19.2 | 9.2 | 65 | 5 |
| 2001-07-11T23:07 | 1514 | 850 | 12.2 | 5.2 | 40 | 4 |
| 2001-07-11T23:08 | 1573 | 844 | 13.0 | -2.0 | ||
| 2001-07-11T23:08 | 1703 | 831 | 13.2 | -9.8 | ||
| 2001-07-11T23:09 | 2136 | 789 | 11.8 | -18.2 | ||
| 2001-07-11T23:10 | 2328 | 771 | 13.0 | -30.0 | ||
| 2001-07-11T23:13 | 3138 | 700 | 11.4 | -28.6 | 315 | 10 |
| 2001-07-11T23:16 | 4201 | 615 | 4.6 | -28.4 | ||
| 2001-07-11T23:20 | 5297 | 536 | -4.9 | -30.9 | ||
| 2001-07-11T23:21 | 5626 | 514 | -6.1 | -32.1 | ||
| 2001-07-11T23:22 | 5850 | 500 | -7.9 | -17.9 | 310 | 15 |
| 2001-07-11T23:23 | 6149 | 481 | -9.7 | -16.7 | ||
| 2001-07-11T23:23 | 6360 | 468 | -9.5 | -17.5 | ||
| 2001-07-11T23:26 | 7200 | 419 | -16.3 | -20.0 | ||
| 2001-07-11T23:26 | 7326 | 412 | -17.1 | -21.1 | ||
| 2001-07-11T23:27 | 7550 | 400 | -16.9 | -28.9 | ||
| 2001-07-11T23:28 | 7777 | 388 | -17.9 | -32.9 | ||
| 2001-07-11T23:32 | 8919 | 332 | -26.5 | -37.5 | ||
| 2001-07-11T23:34 | 9650 | 300 | -31.1 | -47.1 | ||
| 2001-07-11T23:38 | 10910 | 250 | -42.3 | -55.3 | 305 | 25 |
| 2001-07-11T23:43 | 12380 | 200 | -54.7 | -63.7 | 300 | 30 |
| 2001-07-11T23:49 | 14160 | 150 | -68.1 | -75.1 | 300 | 28 |
| 2001-07-11T23:52 | 15069 | 129 | -65.3 | -72.3 | ||
| 2001-07-11T23:57 | 16620 | 100 | -65.1 | -74.1 | 330 | 11 |
| 2001-07-12T11:05 | 178 | 996 | 16.6 | 12.8 | 80 | 2 |
| 2001-07-12T11:05 | 281 | 984 | 19.8 | 9.8 | ||
| 2001-07-12T11:06 | 377 | 973 | 20.0 | 5.0 | ||
| 2001-07-12T11:07 | 813 | 925 | 17.2 | 7.2 | 80 | 6 |
| 2001-07-12T11:08 | 1016 | 903 | 15.2 | 9.2 | ||
| 2001-07-12T11:09 | 1528 | 850 | 11.8 | 5.8 | 55 | 7 |
| 2001-07-12T11:10 | 1846 | 818 | 9.8 | 0.8 | ||
| 2001-07-12T11:11 | 1968 | 806 | 10.4 | -14.6 | ||
| 2001-07-12T11:12 | 2282 | 776 | 10.6 | -24.4 | ||
| 2001-07-12T11:13 | 2630 | 744 | 8.8 | -27.2 | ||
| 2001-07-12T11:14 | 2910 | 719 | 6.8 | -14.2 | ||
| 2001-07-12T11:14 | 2990 | 712 | 6.4 | -21.6 | ||
| 2001-07-12T11:15 | 3136 | 700 | 5.6 | -10.4 | 285 | 7 |
| 2001-07-12T11:15 | 3277 | 688 | 5.0 | -8.0 | ||
| 2001-07-12T11:15 | 3324 | 684 | 5.2 | -1.8 | ||
| 2001-07-12T11:16 | 3516 | 668 | 4.2 | 1.6 | ||
| 2001-07-12T11:17 | 3700 | 653 | 3.2 | -3.8 | ||
| 2001-07-12T11:17 | 3750 | 649 | 2.6 | 0.2 | ||
| 2001-07-12T11:17 | 3913 | 636 | 2.0 | 2.0 | ||
| 2001-07-12T11:22 | 5331 | 532 | -4.3 | -4.3 | ||
| 2001-07-12T11:24 | 5830 | 500 | -7.7 | -8.5 | 300 | 13 |
| 2001-07-12T11:29 | 7530 | 400 | -18.5 | -20.1 | 305 | 21 |
| 2001-07-12T11:31 | 8185 | 366 | -23.1 | -24.1 | ||
| 2001-07-12T11:33 | 8573 | 347 | -25.3 | -28.1 | ||
| 2001-07-12T11:33 | 8720 | 340 | -26.5 | -31.5 | ||
| 2001-07-12T11:35 | 9311 | 313 | -30.5 | -36.5 | ||
| 2001-07-12T11:36 | 9620 | 300 | -32.9 | -41.9 | ||
| 2001-07-12T11:37 | 10027 | 283 | -35.7 | -48.7 | ||
| 2001-07-12T11:38 | 10326 | 271 | -37.7 | -43.7 | ||
| 2001-07-12T11:40 | 10870 | 250 | -41.7 | -44.7 | ||
| 2001-07-12T11:45 | 12350 | 200 | -54.5 | -57.9 | 280 | 44 |
| 2001-07-12T11:50 | 13779 | 159 | -65.1 | -69.5 | ||
| 2001-07-12T11:51 | 14130 | 150 | -66.3 | -70.7 | 305 | 35 |
| 2001-07-12T11:53 | 14726 | 136 | -63.3 | -69.3 | ||
| 2001-07-12T11:57 | 15906 | 112 | -66.7 | -74.7 | ||
| 2001-07-12T11:59 | 16600 | 100 | -65.9 | -74.9 | 355 | 11 |
| 2001-07-12T23:05 | 178 | 996 | 25.0 | 16.0 | 60 | 5 |
| 2001-07-12T23:05 | 248 | 988 | 24.8 | 10.8 | ||
| 2001-07-12T23:07 | 818 | 925 | 19.0 | 10.0 | 60 | 5 |
| 2001-07-12T23:09 | 1536 | 850 | 12.0 | 8.0 | 60 | 4 |
| 2001-07-12T23:11 | 2088 | 795 | 7.0 | 5.4 | ||
| 2001-07-12T23:12 | 2223 | 782 | 6.6 | 2.9 | ||
| 2001-07-12T23:12 | 2297 | 775 | 7.8 | -7.2 | ||
| 2001-07-12T23:14 | 2972 | 714 | 9.6 | -30.4 | ||
| 2001-07-12T23:15 | 3142 | 700 | 9.0 | -21.0 | 340 | 7 |
| 2001-07-12T23:15 | 3284 | 688 | 7.6 | -6.4 | ||
| 2001-07-12T23:17 | 3986 | 631 | 2.4 | -11.6 | ||
| 2001-07-12T23:18 | 4192 | 615 | 1.0 | -20.0 | ||
| 2001-07-12T23:19 | 4310 | 606 | 0.0 | -14.0 | ||
| 2001-07-12T23:19 | 4523 | 590 | -0.9 | -12.9 | ||
| 2001-07-12T23:20 | 4672 | 579 | -1.5 | -7.5 | ||
| 2001-07-12T23:21 | 5207 | 541 | -4.7 | -8.3 | ||
| 2001-07-12T23:22 | 5413 | 527 | -4.5 | -11.5 | ||
| 2001-07-12T23:24 | 5840 | 500 | -7.5 | -13.5 | 315 | 16 |
| 2001-07-12T23:27 | 6753 | 444 | -12.5 | -20.5 | ||
| 2001-07-12T23:28 | 7336 | 411 | -16.9 | -30.9 | ||
| 2001-07-12T23:29 | 7540 | 400 | -18.7 | -26.7 | 315 | 20 |
| 2001-07-12T23:30 | 7671 | 393 | -20.1 | -28.1 | ||
| 2001-07-12T23:30 | 7842 | 384 | -20.3 | -35.3 | ||
| 2001-07-12T23:31 | 8076 | 372 | -22.5 | -34.5 | ||
| 2001-07-12T23:32 | 8376 | 357 | -23.9 | -42.9 | ||
| 2001-07-12T23:36 | 9630 | 300 | -32.9 | -44.9 | ||
| 2001-07-12T23:37 | 9819 | 292 | -34.5 | -44.5 | ||
| 2001-07-12T23:40 | 10880 | 250 | -41.9 | -57.9 | ||
| 2001-07-12T23:45 | 12360 | 200 | -52.5 | -65.5 | ||
| 2001-07-12T23:50 | 13864 | 158 | -56.9 | -68.9 | ||
| 2001-07-12T23:51 | 14170 | 150 | -58.1 | -71.1 | 315 | 18 |
| 2001-07-12T23:58 | 16243 | 107 | -67.9 | -82.9 | ||
| 2001-07-12T23:59 | 16670 | 100 | -67.5 | -82.5 | ||
| 2001-07-13T11:01 | 178 | 998 | 13.8 | 11.0 | 40 | 2 |
| 2001-07-13T11:01 | 212 | 994 | 21.0 | 5.0 | ||
| 2001-07-13T11:01 | 247 | 990 | 21.4 | 4.4 | ||
| 2001-07-13T11:02 | 529 | 958 | 19.6 | 11.6 | ||
| 2001-07-13T11:03 | 833 | 925 | 17.6 | 10.6 | 340 | 4 |
| 2001-07-13T11:04 | 1131 | 893 | 15.4 | 10.4 | ||
| 2001-07-13T11:05 | 1341 | 871 | 14.4 | 4.4 | ||
| 2001-07-13T11:05 | 1550 | 850 | 12.6 | 3.6 | 35 | 8 |
| 2001-07-13T11:08 | 2332 | 773 | 5.2 | 0.2 | ||
| 2001-07-13T11:09 | 2556 | 752 | 5.2 | -8.8 | ||
| 2001-07-13T11:09 | 2743 | 735 | 8.6 | -28.4 | ||
| 2001-07-13T11:10 | 2878 | 723 | 8.6 | -30.4 | ||
| 2001-07-13T11:11 | 3151 | 700 | 7.0 | -34.0 | 345 | 12 |
| 2001-07-13T11:13 | 3767 | 649 | 4.6 | -40.4 | ||
| 2001-07-13T11:16 | 4778 | 572 | -2.7 | -35.7 | ||
| 2001-07-13T11:17 | 5059 | 552 | -2.7 | -36.7 | ||
| 2001-07-13T11:20 | 5840 | 500 | -8.3 | -42.3 | 340 | 16 |
| 2001-07-13T11:21 | 6382 | 466 | -11.3 | -38.3 | ||
| 2001-07-13T11:25 | 7530 | 400 | -20.5 | -44.5 | 340 | 23 |
| 2001-07-13T11:29 | 8600 | 345 | -30.3 | -49.3 | ||
| 2001-07-13T11:32 | 9580 | 300 | -37.1 | -59.1 | 335 | 28 |
| 2001-07-13T11:33 | 10079 | 279 | -40.5 | -62.5 | ||
| 2001-07-13T11:36 | 10830 | 250 | -43.7 | -66.7 | 330 | 36 |
| 2001-07-13T11:38 | 11416 | 229 | -46.3 | -69.3 | ||
| 2001-07-13T11:41 | 12310 | 200 | -46.5 | -71.5 | 320 | 23 |
| 2001-07-13T11:47 | 14170 | 150 | -58.5 | -81.5 | 320 | 15 |
| 2001-07-13T11:51 | 15340 | 124 | -66.7 | -86.7 | ||
| 2001-07-13T11:55 | 16640 | 100 | -68.7 | -86.7 | 345 | 14 |
| 2001-07-13T23:11 | 178 | 997 | 27.0 | 14.0 | 10 | 6 |
| 2001-07-13T23:11 | 328 | 980 | 26.0 | 10.0 | ||
| 2001-07-13T23:13 | 834 | 925 | 20.8 | 9.8 | 360 | 7 |
| 2001-07-13T23:16 | 1556 | 850 | 13.8 | 7.8 | 345 | 6 |
| 2001-07-13T23:17 | 1927 | 813 | 10.2 | 6.7 | ||
| 2001-07-13T23:18 | 2321 | 775 | 7.8 | -5.2 | ||
| 2001-07-13T23:18 | 2417 | 766 | 8.8 | -14.2 | ||
| 2001-07-13T23:19 | 2711 | 739 | 6.8 | -16.2 | ||
| 2001-07-13T23:21 | 3163 | 700 | 7.4 | -33.6 | 5 | 10 |
| 2001-07-13T23:22 | 3631 | 661 | 5.8 | -37.2 | ||
| 2001-07-13T23:28 | 5217 | 542 | -4.7 | -39.7 | ||
| 2001-07-13T23:28 | 5377 | 531 | -5.9 | -23.9 | ||
| 2001-07-13T23:29 | 5555 | 519 | -5.9 | -42.9 | ||
| 2001-07-13T23:30 | 5850 | 500 | -7.5 | -40.5 | 315 | 11 |
| 2001-07-13T23:33 | 7020 | 429 | -15.5 | -36.5 | ||
| 2001-07-13T23:35 | 7550 | 400 | -20.3 | -36.3 | 325 | 20 |
| 2001-07-13T23:38 | 8357 | 358 | -27.7 | -38.7 | ||
| 2001-07-13T23:41 | 9308 | 313 | -33.9 | -48.9 | ||
| 2001-07-13T23:42 | 9610 | 300 | -36.3 | -48.3 | 330 | 32 |
| 2001-07-13T23:43 | 9938 | 286 | -39.3 | -46.3 | ||
| 2001-07-13T23:45 | 10482 | 264 | -41.9 | -57.9 | ||
| 2001-07-13T23:46 | 10850 | 250 | -43.9 | -59.9 | 325 | 29 |
| 2001-07-13T23:51 | 12330 | 200 | -49.7 | -69.7 | 320 | 25 |
| 2001-07-13T23:57 | 14180 | 150 | -56.5 | -77.5 | ||
| 2001-07-14T00:05 | 16670 | 100 | -68.5 | -87.5 | ||
| 2001-07-14T11:01 | 178 | 998 | 10.6 | 9.3 | 240 | 2 |
| 2001-07-14T11:02 | 332 | 980 | 21.6 | 3.6 | ||
| 2001-07-14T11:03 | 636 | 946 | 21.0 | 1.0 | ||
| 2001-07-14T11:03 | 835 | 925 | 18.8 | 6.8 | 45 | 4 |
| 2001-07-14T11:06 | 1552 | 850 | 12.2 | 1.2 | 65 | 3 |
| 2001-07-14T11:06 | 1670 | 838 | 11.8 | -4.2 | ||
| 2001-07-14T11:09 | 2497 | 758 | 6.4 | -10.6 | ||
| 2001-07-14T11:09 | 2551 | 753 | 7.6 | -24.4 | ||
| 2001-07-14T11:09 | 2606 | 748 | 8.2 | -24.8 | ||
| 2001-07-14T11:11 | 3155 | 700 | 6.8 | -33.2 | 360 | 5 |
| 2001-07-14T11:14 | 4215 | 614 | 0.8 | -36.2 | ||
| 2001-07-14T11:16 | 4723 | 576 | -2.1 | -23.1 | ||
| 2001-07-14T11:16 | 4862 | 566 | -1.7 | -34.7 | ||
| 2001-07-14T11:18 | 5291 | 536 | -4.5 | -29.5 | ||
| 2001-07-14T11:18 | 5379 | 530 | -5.1 | -19.1 | ||
| 2001-07-14T11:19 | 5588 | 516 | -7.1 | -20.1 | ||
| 2001-07-14T11:19 | 5648 | 512 | -7.1 | -25.1 | ||
| 2001-07-14T11:20 | 5840 | 500 | -7.9 | -25.9 | 345 | 12 |
| 2001-07-14T11:21 | 6139 | 481 | -9.3 | -32.3 | ||
| 2001-07-14T11:24 | 7240 | 416 | -17.7 | -34.7 | ||
| 2001-07-14T11:25 | 7540 | 400 | -19.9 | -31.9 | 325 | 14 |
| 2001-07-14T11:27 | 8072 | 372 | -24.7 | -32.7 | ||
| 2001-07-14T11:31 | 9259 | 315 | -32.9 | -46.9 | ||
| 2001-07-14T11:32 | 9600 | 300 | -35.7 | -49.7 | 320 | 15 |
| 2001-07-14T11:35 | 10422 | 266 | -42.5 | -53.5 | ||
| 2001-07-14T11:36 | 10840 | 250 | -45.1 | -62.1 | 335 | 23 |
| 2001-07-14T11:41 | 12310 | 200 | -52.3 | -70.3 | 325 | 24 |
| 2001-07-14T11:45 | 13453 | 167 | -59.7 | -75.7 | ||
| 2001-07-14T11:47 | 14120 | 150 | -60.5 | -74.5 | 320 | 13 |
| 2001-07-14T11:55 | 16620 | 100 | -64.5 | -80.5 | ||
| 2001-07-15T11:00 | 178 | 996 | 12.8 | 12.6 | 120 | 2 |
| 2001-07-15T11:01 | 464 | 963 | 22.0 | 10.0 | ||
| 2001-07-15T11:02 | 817 | 925 | 19.8 | 7.8 | 230 | 4 |
| 2001-07-15T11:03 | 1041 | 901 | 17.8 | 5.8 | ||
| 2001-07-15T11:04 | 1537 | 850 | 13.6 | 5.6 | 165 | 3 |
| 2001-07-15T11:06 | 1999 | 804 | 9.2 | 5.4 | ||
| 2001-07-15T11:07 | 2324 | 773 | 10.4 | -24.6 | ||
| 2001-07-15T11:09 | 2888 | 722 | 9.0 | -31.0 | ||
| 2001-07-15T11:10 | 3149 | 700 | 7.4 | -13.6 | 105 | 2 |
| 2001-07-15T11:10 | 3338 | 684 | 6.4 | -12.6 | ||
| 2001-07-15T11:11 | 3398 | 679 | 5.6 | -5.4 | ||
| 2001-07-15T11:11 | 3567 | 665 | 4.4 | -5.6 | ||
| 2001-07-15T11:11 | 3653 | 658 | 4.2 | -16.8 | ||
| 2001-07-15T11:12 | 3789 | 647 | 3.8 | -18.2 | ||
| 2001-07-15T11:12 | 3877 | 640 | 3.0 | -18.0 | ||
| 2001-07-15T11:12 | 3966 | 633 | 2.0 | -6.0 | ||
| 2001-07-15T11:14 | 4341 | 604 | -1.1 | -8.1 | ||
| 2001-07-15T11:14 | 4554 | 588 | -1.3 | -19.3 | ||
| 2001-07-15T11:15 | 4704 | 577 | -2.3 | -9.3 | ||
| 2001-07-15T11:15 | 4885 | 564 | -1.3 | -17.3 | ||
| 2001-07-15T11:17 | 5215 | 541 | -2.9 | -23.9 | ||
| 2001-07-15T11:17 | 5288 | 536 | -1.7 | -32.7 | ||
| 2001-07-15T11:19 | 5840 | 500 | -5.7 | -28.7 | 325 | 8 |
| 2001-07-15T11:24 | 7550 | 400 | -18.9 | -40.9 | 325 | 13 |
| 2001-07-15T11:24 | 7643 | 395 | -19.5 | -42.5 | ||
| 2001-07-15T11:26 | 8243 | 364 | -24.3 | -32.3 | ||
| 2001-07-15T11:27 | 8343 | 359 | -25.1 | -29.3 | ||
| 2001-07-15T11:27 | 8547 | 349 | -25.9 | -34.9 | ||
| 2001-07-15T11:29 | 8905 | 332 | -28.9 | -33.7 | ||
| 2001-07-15T11:29 | 9057 | 325 | -30.1 | -37.1 | ||
| 2001-07-15T11:31 | 9620 | 300 | -34.5 | -40.5 | 330 | 22 |
| 2001-07-15T11:34 | 10676 | 257 | -44.3 | -48.2 | ||
| 2001-07-15T11:35 | 10870 | 250 | -44.9 | -50.9 | 320 | 23 |
| 2001-07-15T11:36 | 11197 | 238 | -46.5 | -56.5 | ||
| 2001-07-15T11:40 | 12330 | 200 | -55.1 | -64.1 | 325 | 28 |
| 2001-07-15T11:42 | 13030 | 179 | -59.3 | -69.3 | ||
| 2001-07-15T11:46 | 14130 | 150 | -64.5 | -71.5 | ||
| 2001-07-15T11:46 | 14171 | 149 | -64.7 | -71.7 | ||
| 2001-07-15T11:54 | 16580 | 100 | -66.7 | -80.7 | ||
| 2001-07-15T23:08 | 178 | 994 | 27.0 | 14.0 | 180 | 3 |
| 2001-07-15T23:10 | 808 | 925 | 21.2 | 11.2 | 165 | 6 |
| 2001-07-15T23:12 | 1438 | 859 | 15.0 | 10.0 | ||
| 2001-07-15T23:12 | 1532 | 850 | 14.6 | 7.6 | 155 | 4 |
| 2001-07-15T23:13 | 1742 | 829 | 13.0 | 4.0 | ||
| 2001-07-15T23:14 | 2029 | 801 | 13.4 | -21.6 | ||
| 2001-07-15T23:17 | 2802 | 730 | 10.6 | -36.4 | ||
| 2001-07-15T23:18 | 3153 | 700 | 9.0 | -38.0 | 215 | 5 |
| 2001-07-15T23:20 | 3784 | 648 | 4.4 | -20.6 | ||
| 2001-07-15T23:21 | 4115 | 622 | 2.4 | -31.6 | ||
| 2001-07-15T23:22 | 4526 | 591 | 0.4 | -19.6 | ||
| 2001-07-15T23:23 | 4661 | 581 | -0.9 | -12.9 | ||
| 2001-07-15T23:23 | 4841 | 568 | -2.1 | -14.1 | ||
| 2001-07-15T23:25 | 5358 | 532 | -3.3 | -34.3 | ||
| 2001-07-15T23:26 | 5674 | 511 | -5.1 | -34.1 | ||
| 2001-07-15T23:27 | 5850 | 500 | -6.3 | -32.3 | 285 | 4 |
| 2001-07-15T23:29 | 6713 | 447 | -12.3 | -40.3 | ||
| 2001-07-15T23:30 | 6868 | 438 | -12.9 | -21.9 | ||
| 2001-07-15T23:32 | 7348 | 411 | -16.3 | -22.3 | ||
| 2001-07-15T23:32 | 7560 | 400 | -17.9 | -24.9 | 295 | 12 |
| 2001-07-15T23:33 | 7902 | 382 | -19.7 | -26.7 | ||
| 2001-07-15T23:35 | 8379 | 358 | -23.3 | -34.3 | ||
| 2001-07-15T23:39 | 9640 | 300 | -32.9 | -43.9 | 300 | 14 |
| 2001-07-15T23:40 | 9877 | 290 | -35.1 | -46.1 | ||
| 2001-07-15T23:43 | 10900 | 250 | -42.7 | -47.5 | 300 | 20 |
| 2001-07-15T23:48 | 12370 | 200 | -54.9 | -60.9 | 315 | 27 |
| 2001-07-15T23:49 | 12795 | 187 | -58.3 | -64.3 | ||
| 2001-07-15T23:54 | 14160 | 150 | -63.3 | -70.3 | 320 | 24 |
| 2001-07-15T23:59 | 15818 | 114 | -69.1 | -77.1 | ||
| 2001-07-16T00:02 | 16610 | 100 | -66.3 | -75.3 | 355 | 7 |
| 2001-07-16T11:01 | 178 | 995 | 18.0 | 16.0 | 140 | 2 |
| 2001-07-16T11:02 | 370 | 973 | 23.2 | 15.2 | ||
| 2001-07-16T11:03 | 810 | 925 | 20.4 | 13.4 | 185 | 7 |
| 2001-07-16T11:05 | 1532 | 850 | 14.0 | 9.0 | 225 | 5 |
| 2001-07-16T11:07 | 1873 | 816 | 11.2 | 5.2 | ||
| 2001-07-16T11:07 | 2079 | 796 | 11.2 | -1.8 | ||
| 2001-07-16T11:08 | 2163 | 788 | 11.8 | -21.2 | ||
| 2001-07-16T11:10 | 2798 | 730 | 10.6 | -27.4 | ||
| 2001-07-16T11:11 | 3151 | 700 | 8.4 | -11.6 | 220 | 6 |
| 2001-07-16T11:11 | 3186 | 697 | 8.2 | -11.8 | ||
| 2001-07-16T11:11 | 3304 | 687 | 7.0 | -1.0 | ||
| 2001-07-16T11:12 | 3643 | 659 | 4.0 | -2.0 | ||
| 2001-07-16T11:13 | 3792 | 647 | 3.6 | -10.4 | ||
| 2001-07-16T11:13 | 3943 | 635 | 3.4 | -13.6 | ||
| 2001-07-16T11:14 | 4097 | 623 | 2.8 | -10.2 | ||
| 2001-07-16T11:16 | 4796 | 571 | 0.0 | -25.0 | ||
| 2001-07-16T11:18 | 5490 | 523 | -5.1 | -22.1 | ||
| 2001-07-16T11:19 | 5671 | 511 | -6.5 | -10.2 | ||
| 2001-07-16T11:20 | 5850 | 500 | -7.3 | -10.3 | 275 | 8 |
| 2001-07-16T11:22 | 6474 | 461 | -12.5 | -13.0 | ||
| 2001-07-16T11:24 | 7306 | 413 | -15.5 | -23.5 | ||
| 2001-07-16T11:25 | 7550 | 400 | -17.1 | -24.1 | 315 | 13 |
| 2001-07-16T11:27 | 7991 | 377 | -19.5 | -30.5 | ||
| 2001-07-16T11:31 | 9290 | 315 | -31.5 | -44.5 | ||
| 2001-07-16T11:32 | 9640 | 300 | -31.9 | -49.9 | 315 | 18 |
| 2001-07-16T11:33 | 9806 | 293 | -32.5 | -52.5 | ||
| 2001-07-16T11:36 | 10910 | 250 | -41.5 | -62.5 | 315 | 23 |
| 2001-07-16T11:41 | 12380 | 200 | -53.7 | -71.7 | 310 | 24 |
| 2001-07-16T11:44 | 13441 | 169 | -61.1 | -78.1 | ||
| 2001-07-16T11:47 | 14180 | 150 | -64.7 | -80.7 | 315 | 21 |
| 2001-07-16T11:55 | 16610 | 100 | -67.3 | -82.3 | 325 | 9 |
| 2001-07-16T23:09 | 178 | 992 | 28.4 | 16.4 | 180 | 3 |
| 2001-07-16T23:11 | 798 | 925 | 23.2 | 15.2 | 175 | 7 |
| 2001-07-16T23:13 | 1528 | 850 | 16.2 | 13.5 | 200 | 8 |
| 2001-07-16T23:15 | 1872 | 816 | 14.0 | 9.7 | ||
| 2001-07-16T23:15 | 2049 | 799 | 15.2 | -5.8 | ||
| 2001-07-16T23:16 | 2251 | 780 | 13.6 | 9.7 | ||
| 2001-07-16T23:16 | 2414 | 765 | 13.4 | 8.5 | ||
| 2001-07-16T23:18 | 2781 | 732 | 10.8 | 8.5 | ||
| 2001-07-16T23:19 | 3162 | 700 | 8.2 | 6.5 | 280 | 9 |
| 2001-07-16T23:22 | 4266 | 611 | 1.4 | -0.1 | ||
| 2001-07-16T23:27 | 5593 | 517 | -3.7 | -17.7 | ||
| 2001-07-16T23:28 | 5870 | 500 | -6.1 | -17.1 | 325 | 10 |
| 2001-07-16T23:30 | 6667 | 451 | -10.7 | -20.7 | ||
| 2001-07-16T23:32 | 7066 | 428 | -13.3 | -28.3 | ||
| 2001-07-16T23:33 | 7464 | 406 | -15.9 | -22.9 | ||
| 2001-07-16T23:33 | 7580 | 400 | -16.1 | -30.1 | 305 | 14 |
| 2001-07-16T23:35 | 8119 | 372 | -21.1 | -36.1 | ||
| 2001-07-16T23:39 | 9234 | 319 | -28.3 | -48.3 | ||
| 2001-07-16T23:39 | 9369 | 313 | -29.5 | -45.5 | ||
| 2001-07-16T23:40 | 9530 | 306 | -30.5 | -36.5 | ||
| 2001-07-16T23:40 | 9680 | 300 | -31.5 | -37.5 | 310 | 16 |
| 2001-07-16T23:41 | 9918 | 290 | -33.5 | -36.5 | ||
| 2001-07-16T23:44 | 10940 | 250 | -41.3 | -47.3 | 300 | 20 |
| 2001-07-16T23:47 | 11702 | 223 | -48.1 | -51.6 | ||
| 2001-07-16T23:49 | 12420 | 200 | -53.5 | -59.5 | 295 | 25 |
| 2001-07-16T23:51 | 13124 | 179 | -58.3 | -65.3 | ||
| 2001-07-16T23:55 | 14220 | 150 | -64.9 | -72.9 | 300 | 15 |
| 2001-07-16T23:58 | 15222 | 127 | -68.9 | -77.9 | ||
| 2001-07-17T00:03 | 16660 | 100 | -66.9 | -78.9 | 110 | 1 |
| 2001-07-17T11:02 | 178 | 993 | 19.4 | 17.4 | 180 | 2 |
| 2001-07-17T11:03 | 389 | 969 | 24.8 | 20.4 | ||
| 2001-07-17T11:04 | 795 | 925 | 23.0 | 18.0 | 255 | 8 |
| 2001-07-17T11:05 | 955 | 908 | 22.0 | 16.0 | ||
| 2001-07-17T11:05 | 1156 | 887 | 20.2 | 18.3 | ||
| 2001-07-17T11:06 | 1528 | 850 | 18.0 | 14.3 | 245 | 7 |
| 2001-07-17T11:07 | 1659 | 837 | 17.8 | 11.8 | ||
| 2001-07-17T11:09 | 2352 | 771 | 13.8 | 10.1 | ||
| 2001-07-17T11:11 | 2865 | 725 | 11.6 | 5.6 | ||
| 2001-07-17T11:12 | 3170 | 700 | 9.6 | 4.6 | 285 | 6 |
| 2001-07-17T11:13 | 3616 | 663 | 6.4 | 1.8 | ||
| 2001-07-17T11:14 | 3790 | 649 | 5.4 | -2.6 | ||
| 2001-07-17T11:16 | 4543 | 591 | -0.5 | -5.5 | ||
| 2001-07-17T11:17 | 4720 | 578 | -0.1 | -16.1 | ||
| 2001-07-17T11:18 | 5000 | 558 | -2.5 | -13.5 | ||
| 2001-07-17T11:19 | 5465 | 526 | -5.1 | -29.1 | ||
| 2001-07-17T11:21 | 5870 | 500 | -6.5 | -38.5 | 305 | 18 |
| 2001-07-17T11:22 | 6316 | 472 | -9.5 | -43.5 | ||
| 2001-07-17T11:23 | 6464 | 463 | -8.9 | -46.9 | ||
| 2001-07-17T11:25 | 7245 | 418 | -14.1 | -40.1 | ||
| 2001-07-17T11:25 | 7318 | 414 | -13.9 | -24.9 | ||
| 2001-07-17T11:26 | 7590 | 400 | -15.9 | -23.9 | 310 | 20 |
| 2001-07-17T11:29 | 8493 | 354 | -23.9 | -34.9 | ||
| 2001-07-17T11:31 | 8892 | 335 | -27.1 | -31.2 | ||
| 2001-07-17T11:33 | 9680 | 300 | -33.5 | -37.4 | 300 | 24 |
| 2001-07-17T11:35 | 10359 | 272 | -38.5 | -40.9 | ||
| 2001-07-17T11:36 | 10666 | 260 | -41.1 | -43.7 | ||
| 2001-07-17T11:37 | 10797 | 255 | -42.1 | -48.1 | ||
| 2001-07-17T11:37 | 10930 | 250 | -43.1 | -47.5 | 295 | 22 |
| 2001-07-17T11:38 | 11093 | 244 | -44.3 | -48.1 | ||
| 2001-07-17T11:41 | 11989 | 213 | -50.5 | -60.5 | ||
| 2001-07-17T11:42 | 12400 | 200 | -53.9 | -60.9 | 300 | 20 |
| 2001-07-17T11:44 | 12861 | 186 | -57.5 | -62.5 | ||
| 2001-07-17T11:48 | 14200 | 150 | -65.7 | -73.7 | 305 | 16 |
| 2001-07-17T11:49 | 14446 | 144 | -67.5 | -75.5 | ||
| 2001-07-17T11:52 | 15534 | 120 | -70.1 | -79.1 | ||
| 2001-07-17T11:53 | 15840 | 114 | -67.3 | -76.3 | ||
| 2001-07-17T11:56 | 16630 | 100 | -67.3 | -77.3 | 45 | 3 |
| 2001-07-17T23:21 | 178 | 991 | 25.4 | 22.5 | 290 | 3 |
| 2001-07-17T23:21 | 231 | 985 | 25.2 | 24.5 | ||
| 2001-07-17T23:22 | 383 | 968 | 26.4 | 25.2 | ||
| 2001-07-17T23:23 | 686 | 935 | 25.4 | 23.1 | ||
| 2001-07-17T23:23 | 791 | 925 | 27.0 | 19.0 | 230 | 6 |
| 2001-07-17T23:25 | 1532 | 850 | 20.6 | 10.6 | 280 | 10 |
| 2001-07-17T23:26 | 1644 | 839 | 19.6 | 12.6 | ||
| 2001-07-17T23:28 | 2178 | 788 | 17.8 | 7.8 | ||
| 2001-07-17T23:31 | 3182 | 700 | 9.4 | 4.8 | 310 | 9 |
| 2001-07-17T23:34 | 4263 | 613 | 2.0 | -2.3 | ||
| 2001-07-17T23:36 | 4748 | 577 | 0.0 | -7.0 | ||
| 2001-07-17T23:37 | 5171 | 547 | -3.7 | -8.0 | ||
| 2001-07-17T23:39 | 5524 | 523 | -3.7 | -14.7 | ||
| 2001-07-17T23:40 | 5890 | 500 | -6.7 | -17.7 | 320 | 20 |
| 2001-07-17T23:41 | 6143 | 484 | -6.9 | -34.9 | ||
| 2001-07-17T23:41 | 6272 | 476 | -7.9 | -23.9 | ||
| 2001-07-17T23:42 | 6536 | 460 | -9.3 | -37.3 | ||
| 2001-07-17T23:45 | 7600 | 400 | -16.7 | -46.7 | 305 | 21 |
| 2001-07-17T23:48 | 8441 | 357 | -22.9 | -49.9 | ||
| 2001-07-17T23:52 | 9700 | 300 | -32.5 | -42.5 | 305 | 23 |
| 2001-07-17T23:56 | 10960 | 250 | -40.9 | -44.8 | 310 | 13 |
| 2001-07-18T00:01 | 12440 | 200 | -53.3 | -57.2 | 280 | 18 |
| 2001-07-18T00:07 | 14230 | 150 | -66.5 | -70.3 | 260 | 29 |
| 2001-07-18T00:11 | 15523 | 121 | -67.7 | -71.7 | ||
| 2001-07-18T00:15 | 16660 | 100 | -67.5 | -71.7 | 315 | 6 |
| 2001-07-18T11:00 | 178 | 992 | 21.0 | 20.7 | 220 | 4 |
| 2001-07-18T11:01 | 345 | 973 | 24.0 | 21.9 | ||
| 2001-07-18T11:01 | 507 | 955 | 24.4 | 24.4 | ||
| 2001-07-18T11:02 | 791 | 925 | 23.8 | 23.1 | 345 | 2 |
| 2001-07-18T11:04 | 1530 | 850 | 19.6 | 19.6 | 265 | 3 |
| 2001-07-18T11:06 | 2100 | 795 | 17.2 | 12.4 | ||
| 2001-07-18T11:08 | 2513 | 757 | 13.8 | 8.9 | ||
| 2001-07-18T11:08 | 2726 | 738 | 13.2 | 2.2 | ||
| 2001-07-18T11:10 | 3178 | 700 | 9.8 | -7.2 | 315 | 10 |
| 2001-07-18T11:10 | 3309 | 689 | 9.6 | -11.4 | ||
| 2001-07-18T11:12 | 3851 | 645 | 6.2 | -15.8 | ||
| 2001-07-18T11:14 | 4531 | 593 | 1.2 | -18.8 | ||
| 2001-07-18T11:15 | 4749 | 577 | -0.5 | -15.5 | ||
| 2001-07-18T11:15 | 4874 | 568 | -1.7 | -7.7 | ||
| 2001-07-18T11:16 | 4944 | 563 | -1.7 | -11.7 | ||
| 2001-07-18T11:16 | 5100 | 552 | -2.5 | -8.5 | ||
| 2001-07-18T11:17 | 5451 | 528 | -3.3 | -15.3 | ||
| 2001-07-18T11:19 | 5890 | 500 | -5.7 | -17.7 | 310 | 12 |
| 2001-07-18T11:21 | 6435 | 466 | -10.1 | -17.1 | ||
| 2001-07-18T11:21 | 6551 | 459 | -10.7 | -20.7 | ||
| 2001-07-18T11:21 | 6669 | 452 | -11.5 | -17.5 | ||
| 2001-07-18T11:22 | 6857 | 441 | -12.7 | -21.7 | ||
| 2001-07-18T11:23 | 7049 | 430 | -14.3 | -18.4 | ||
| 2001-07-18T11:23 | 7137 | 425 | -14.5 | -16.6 | ||
| 2001-07-18T11:24 | 7444 | 408 | -16.3 | -23.3 | ||
| 2001-07-18T11:24 | 7600 | 400 | -16.7 | -20.6 | 305 | 18 |
| 2001-07-18T11:25 | 7847 | 387 | -18.3 | -23.1 | ||
| 2001-07-18T11:28 | 8839 | 338 | -26.3 | -29.0 | ||
| 2001-07-18T11:29 | 9143 | 324 | -28.1 | -32.3 | ||
| 2001-07-18T11:30 | 9276 | 318 | -29.1 | -39.1 | ||
| 2001-07-18T11:30 | 9480 | 309 | -30.5 | -35.5 | ||
| 2001-07-18T11:31 | 9690 | 300 | -31.7 | -36.7 | 295 | 20 |
| 2001-07-18T11:32 | 10026 | 286 | -34.3 | -41.3 | ||
| 2001-07-18T11:35 | 10708 | 259 | -40.3 | -43.6 | ||
| 2001-07-18T11:35 | 10950 | 250 | -41.5 | -47.5 | 305 | 20 |
| 2001-07-18T11:40 | 12430 | 200 | -54.3 | -59.1 | 300 | 17 |
| 2001-07-18T11:45 | 13896 | 158 | -66.1 | -70.5 | ||
| 2001-07-18T11:46 | 14210 | 150 | -66.1 | -70.5 | 285 | 15 |
| 2001-07-18T11:51 | 15592 | 119 | -71.5 | -76.4 | ||
| 2001-07-18T11:51 | 15849 | 114 | -65.3 | -71.3 | ||
| 2001-07-18T11:54 | 16630 | 100 | -66.9 | -74.9 | 315 | 8 |
| 2001-07-18T23:14 | 178 | 993 | 26.4 | 22.3 | 200 | 5 |
| 2001-07-18T23:14 | 284 | 981 | 26.0 | 22.3 | ||
| 2001-07-18T23:16 | 684 | 937 | 24.0 | 21.7 | ||
| 2001-07-18T23:16 | 806 | 925 | 23.4 | 21.4 | 260 | 4 |
| 2001-07-18T23:17 | 947 | 910 | 22.6 | 20.1 | ||
| 2001-07-18T23:17 | 1052 | 899 | 22.2 | 15.2 | ||
| 2001-07-18T23:18 | 1542 | 850 | 19.8 | 15.7 | 305 | 11 |
| 2001-07-18T23:20 | 2006 | 805 | 18.4 | 5.4 | ||
| 2001-07-18T23:22 | 2716 | 740 | 12.8 | 3.8 | ||
| 2001-07-18T23:24 | 3189 | 700 | 10.4 | 0.4 | 330 | 7 |
| 2001-07-18T23:25 | 3465 | 677 | 9.0 | -1.0 | ||
| 2001-07-18T23:26 | 3812 | 649 | 6.6 | -9.4 | ||
| 2001-07-18T23:27 | 4080 | 628 | 4.2 | -5.8 | ||
| 2001-07-18T23:28 | 4355 | 607 | 2.4 | -8.6 | ||
| 2001-07-18T23:28 | 4502 | 596 | 1.0 | -5.0 | ||
| 2001-07-18T23:28 | 4583 | 590 | 2.0 | -7.0 | ||
| 2001-07-18T23:29 | 4860 | 570 | 1.6 | -6.4 | ||
| 2001-07-18T23:33 | 5910 | 500 | -5.9 | -12.9 | 330 | 18 |
| 2001-07-18T23:35 | 6489 | 464 | -10.1 | -13.0 | ||
| 2001-07-18T23:38 | 7429 | 410 | -15.7 | -19.3 | ||
| 2001-07-18T23:38 | 7620 | 400 | -16.9 | -22.9 | ||
| 2001-07-18T23:39 | 7866 | 387 | -18.5 | -25.5 | ||
| 2001-07-18T23:40 | 8159 | 372 | -20.9 | -26.9 | ||
| 2001-07-18T23:41 | 8299 | 365 | -21.3 | -31.3 | ||
| 2001-07-18T23:45 | 9720 | 300 | -31.3 | -44.3 | ||
| 2001-07-18T23:49 | 10765 | 258 | -40.3 | -51.3 | ||
| 2001-07-18T23:49 | 10980 | 250 | -42.3 | -50.3 | ||
| 2001-07-18T23:50 | 11226 | 241 | -43.7 | -48.1 | ||
| 2001-07-18T23:54 | 12450 | 200 | -53.1 | -56.7 | 265 | 21 |
| 2001-07-18T23:57 | 13403 | 172 | -60.3 | -64.6 | ||
| 2001-07-19T00:00 | 14250 | 150 | -65.9 | -70.6 | 260 | 20 |
| 2001-07-19T00:08 | 16670 | 100 | -68.5 | -74.5 | 310 | 6 |
| 2001-07-19T11:02 | 178 | 994 | 18.4 | 18.4 | 100 | 3 |
| 2001-07-19T11:02 | 317 | 978 | 23.6 | 20.4 | ||
| 2001-07-19T11:03 | 469 | 961 | 24.2 | 20.2 | ||
| 2001-07-19T11:04 | 688 | 937 | 22.4 | 20.5 | ||
| 2001-07-19T11:04 | 807 | 925 | 23.0 | 19.2 | 185 | 3 |
| 2001-07-19T11:05 | 967 | 908 | 23.2 | 17.2 | ||
| 2001-07-19T11:06 | 1277 | 876 | 22.2 | 17.4 | ||
| 2001-07-19T11:06 | 1545 | 850 | 20.6 | 16.1 | 285 | 6 |
| 2001-07-19T11:07 | 1769 | 828 | 19.0 | 14.9 | ||
| 2001-07-19T11:08 | 2136 | 793 | 17.0 | 8.0 | ||
| 2001-07-19T11:10 | 2595 | 751 | 14.0 | 4.0 | ||
| 2001-07-19T11:12 | 3193 | 700 | 9.2 | 7.3 | 5 | 7 |
| 2001-07-19T11:12 | 3217 | 698 | 9.0 | 7.1 | ||
| 2001-07-19T11:12 | 3253 | 695 | 9.2 | 4.7 | ||
| 2001-07-19T11:12 | 3336 | 688 | 8.4 | 6.2 | ||
| 2001-07-19T11:16 | 4447 | 600 | 1.4 | -8.6 | ||
| 2001-07-19T11:17 | 4609 | 588 | 0.0 | -6.0 | ||
| 2001-07-19T11:17 | 4829 | 572 | -0.3 | -11.3 | ||
| 2001-07-19T11:18 | 4913 | 566 | -0.9 | -7.9 | ||
| 2001-07-19T11:19 | 5227 | 544 | -2.5 | -9.5 | ||
| 2001-07-19T11:20 | 5688 | 513 | -6.1 | -9.3 | ||
| 2001-07-19T11:21 | 5900 | 500 | -5.7 | -16.7 | 280 | 11 |
| 2001-07-19T11:21 | 6121 | 486 | -6.5 | -21.5 | ||
| 2001-07-19T11:23 | 6464 | 465 | -8.7 | -16.7 | ||
| 2001-07-19T11:25 | 7081 | 429 | -13.5 | -19.5 | ||
| 2001-07-19T11:26 | 7443 | 409 | -14.1 | -27.1 | ||
| 2001-07-19T11:26 | 7620 | 400 | -15.3 | -28.3 | 310 | 11 |
| 2001-07-19T11:31 | 9149 | 325 | -26.7 | -39.7 | ||
| 2001-07-19T11:33 | 9720 | 300 | -30.7 | -39.7 | 310 | 15 |
| 2001-07-19T11:36 | 10456 | 270 | -37.1 | -43.1 | ||
| 2001-07-19T11:37 | 10990 | 250 | -41.5 | -48.5 | 305 | 21 |
| 2001-07-19T11:42 | 12460 | 200 | -53.5 | -61.5 | 290 | 30 |
| 2001-07-19T11:44 | 13024 | 183 | -58.3 | -66.3 | ||
| 2001-07-19T11:48 | 14260 | 150 | -66.1 | -73.1 | 315 | 18 |
| 2001-07-19T11:56 | 16660 | 100 | -71.1 | -78.1 | 360 | 2 |
| 2001-07-19T23:01 | 178 | 994 | 25.0 | 22.7 | 290 | 4 |
| 2001-07-19T23:02 | 444 | 964 | 22.2 | 21.0 | ||
| 2001-07-19T23:03 | 810 | 925 | 22.6 | 17.6 | 215 | 5 |
| 2001-07-19T23:04 | 1210 | 883 | 21.2 | 13.2 | ||
| 2001-07-19T23:05 | 1543 | 850 | 19.0 | 10.0 | 210 | 6 |
| 2001-07-19T23:06 | 1848 | 820 | 16.8 | 9.8 | ||
| 2001-07-19T23:09 | 2617 | 748 | 10.0 | 10.0 | ||
| 2001-07-19T23:09 | 2762 | 735 | 10.6 | 7.5 | ||
| 2001-07-19T23:10 | 2944 | 719 | 9.4 | 9.1 | ||
| 2001-07-19T23:11 | 3179 | 700 | 8.8 | 5.3 | 275 | 8 |
| 2001-07-19T23:13 | 3948 | 637 | 3.2 | 3.2 | ||
| 2001-07-19T23:18 | 5219 | 543 | -4.1 | -4.1 | ||
| 2001-07-19T23:20 | 5880 | 500 | -6.9 | -8.6 | 295 | 10 |
| 2001-07-19T23:20 | 6037 | 490 | -7.9 | -11.2 | ||
| 2001-07-19T23:22 | 6576 | 457 | -9.3 | -12.0 | ||
| 2001-07-19T23:24 | 7078 | 428 | -12.3 | -15.8 | ||
| 2001-07-19T23:24 | 7221 | 420 | -13.3 | -15.0 | ||
| 2001-07-19T23:25 | 7600 | 400 | -15.3 | -17.9 | 320 | 15 |
| 2001-07-19T23:27 | 8223 | 368 | -19.3 | -24.2 | ||
| 2001-07-19T23:29 | 8805 | 340 | -23.3 | -26.3 | ||
| 2001-07-19T23:32 | 9710 | 300 | -30.1 | -35.1 | 310 | 14 |
| 2001-07-19T23:35 | 10500 | 268 | -36.7 | -45.7 | ||
| 2001-07-19T23:36 | 10980 | 250 | -40.7 | -47.7 | 305 | 13 |
| 2001-07-19T23:41 | 12460 | 200 | -51.9 | -60.9 | 285 | 17 |
| 2001-07-19T23:47 | 14270 | 150 | -67.3 | -75.3 | 290 | 16 |
| 2001-07-19T23:53 | 16051 | 111 | -73.9 | -80.9 | ||
| 2001-07-19T23:55 | 16660 | 100 | -68.7 | -75.7 | 340 | 3 |
| 2001-07-20T11:01 | 178 | 995 | 20.2 | 20.2 | 100 | 2 |
| 2001-07-20T11:01 | 309 | 980 | 23.4 | 21.5 | ||
| 2001-07-20T11:02 | 487 | 960 | 22.6 | 22.1 | ||
| 2001-07-20T11:03 | 724 | 934 | 22.2 | 17.6 | ||
| 2001-07-20T11:03 | 815 | 925 | 21.6 | 18.4 | 195 | 3 |
| 2001-07-20T11:03 | 899 | 916 | 20.6 | 18.5 | ||
| 2001-07-20T11:05 | 1360 | 868 | 19.2 | 12.2 | ||
| 2001-07-20T11:05 | 1546 | 850 | 18.2 | 13.4 | 145 | 5 |
| 2001-07-20T11:10 | 2944 | 719 | 7.6 | 7.6 | ||
| 2001-07-20T11:11 | 3178 | 700 | 7.6 | 5.1 | 355 | 6 |
| 2001-07-20T11:12 | 3586 | 666 | 7.2 | 1.2 | ||
| 2001-07-20T11:12 | 3623 | 663 | 7.2 | 5.3 | ||
| 2001-07-20T11:12 | 3648 | 661 | 7.4 | 0.4 | ||
| 2001-07-20T11:13 | 3723 | 655 | 7.4 | -4.6 | ||
| 2001-07-20T11:14 | 4119 | 624 | 5.2 | -6.8 | ||
| 2001-07-20T11:15 | 4423 | 601 | 2.2 | -3.8 | ||
| 2001-07-20T11:16 | 4667 | 583 | 0.6 | -5.4 | ||
| 2001-07-20T11:16 | 4861 | 569 | 0.4 | -21.6 | ||
| 2001-07-20T11:17 | 5017 | 558 | 0.8 | -34.2 | ||
| 2001-07-20T11:19 | 5563 | 521 | -2.1 | -29.1 | ||
| 2001-07-20T11:20 | 5900 | 500 | -4.9 | -31.9 | 320 | 12 |
| 2001-07-20T11:21 | 6430 | 467 | -9.3 | -32.3 | ||
| 2001-07-20T11:25 | 7610 | 400 | -14.3 | -50.3 | 340 | 9 |
| 2001-07-20T11:29 | 8855 | 338 | -25.7 | -39.7 | ||
| 2001-07-20T11:31 | 9226 | 321 | -28.7 | -47.7 | ||
| 2001-07-20T11:32 | 9710 | 300 | -32.3 | -45.3 | 325 | 14 |
| 2001-07-20T11:34 | 10142 | 282 | -35.5 | -46.5 | ||
| 2001-07-20T11:36 | 10980 | 250 | -41.5 | -59.5 | 325 | 21 |
| 2001-07-20T11:39 | 11654 | 226 | -47.1 | -62.1 | ||
| 2001-07-20T11:40 | 11982 | 215 | -49.5 | -56.5 | ||
| 2001-07-20T11:41 | 12450 | 200 | -53.3 | -60.3 | ||
| 2001-07-20T11:45 | 13582 | 167 | -63.1 | -69.1 | ||
| 2001-07-20T11:47 | 14240 | 150 | -67.5 | -72.5 | ||
| 2001-07-20T11:54 | 16243 | 107 | -72.7 | -79.7 | ||
| 2001-07-20T11:55 | 16650 | 100 | -71.7 | -79.7 | ||
| 2001-07-20T23:01 | 178 | 993 | 30.2 | 23.2 | 220 | 4 |
| 2001-07-20T23:03 | 806 | 925 | 24.0 | 20.8 | 145 | 3 |
| 2001-07-20T23:04 | 976 | 907 | 22.4 | 20.0 | ||
| 2001-07-20T23:04 | 1120 | 892 | 22.0 | 15.0 | ||
| 2001-07-20T23:05 | 1541 | 850 | 19.4 | 14.4 | 115 | 0 |
| 2001-07-20T23:07 | 1982 | 807 | 16.6 | 9.6 | ||
| 2001-07-20T23:09 | 2500 | 759 | 15.4 | 1.4 | ||
| 2001-07-20T23:11 | 3116 | 705 | 10.4 | -3.6 | ||
| 2001-07-20T23:11 | 3187 | 700 | 10.4 | -5.6 | 325 | 8 |
| 2001-07-20T23:11 | 3342 | 687 | 9.8 | -10.2 | ||
| 2001-07-20T23:15 | 4312 | 610 | 2.6 | -14.4 | ||
| 2001-07-20T23:15 | 4472 | 598 | 2.8 | -24.2 | ||
| 2001-07-20T23:17 | 5185 | 547 | -0.9 | -37.9 | ||
| 2001-07-20T23:19 | 5540 | 523 | -3.7 | -24.7 | ||
| 2001-07-20T23:19 | 5784 | 507 | -5.3 | -40.3 | ||
| 2001-07-20T23:20 | 5900 | 500 | -6.1 | -29.1 | 305 | 8 |
| 2001-07-20T23:20 | 5963 | 496 | -6.7 | -25.7 | ||
| 2001-07-20T23:21 | 6169 | 483 | -8.3 | -9.1 | ||
| 2001-07-20T23:22 | 6696 | 451 | -11.3 | -11.6 | ||
| 2001-07-20T23:23 | 6920 | 438 | -11.1 | -15.0 | ||
| 2001-07-20T23:25 | 7440 | 409 | -14.9 | -17.9 | ||
| 2001-07-20T23:25 | 7620 | 400 | -15.7 | -19.4 | 305 | 12 |
| 2001-07-20T23:28 | 8487 | 356 | -21.1 | -28.1 | ||
| 2001-07-20T23:30 | 9172 | 324 | -27.1 | -31.2 | ||
| 2001-07-20T23:32 | 9720 | 300 | -31.3 | -36.3 | 310 | 13 |
| 2001-07-20T23:36 | 10990 | 250 | -40.7 | -52.7 | 305 | 15 |
| 2001-07-20T23:38 | 11435 | 234 | -44.9 | -52.9 | ||
| 2001-07-20T23:41 | 12470 | 200 | -53.7 | -60.7 | 300 | 18 |
| 2001-07-20T23:44 | 13347 | 174 | -61.5 | -68.5 | ||
| 2001-07-20T23:47 | 14260 | 150 | -66.5 | -72.5 | 335 | 12 |
| 2001-07-20T23:52 | 15642 | 119 | -71.1 | -78.1 | ||
| 2001-07-20T23:55 | 16680 | 100 | -68.7 | -77.7 | 225 | 3 |
| 2001-07-21T11:11 | 178 | 993 | 21.8 | 20.9 | 130 | 2 |
| 2001-07-21T11:11 | 257 | 984 | 24.4 | 24.4 | ||
| 2001-07-21T11:11 | 328 | 976 | 25.0 | 22.9 | ||
| 2001-07-21T11:13 | 800 | 925 | 23.8 | 15.8 | 215 | 6 |
| 2001-07-21T11:15 | 1368 | 866 | 20.2 | 15.2 | ||
| 2001-07-21T11:15 | 1497 | 853 | 19.8 | 11.8 | ||
| 2001-07-21T11:15 | 1535 | 850 | 19.6 | 15.1 | 285 | 7 |
| 2001-07-21T11:18 | 2167 | 789 | 15.8 | 12.2 | ||
| 2001-07-21T11:18 | 2438 | 764 | 13.4 | 13.1 | ||
| 2001-07-21T11:20 | 2920 | 721 | 9.8 | 9.2 | ||
| 2001-07-21T11:20 | 3059 | 709 | 9.2 | 5.4 | ||
| 2001-07-21T11:21 | 3179 | 700 | 8.4 | 4.8 | 310 | 6 |
| 2001-07-21T11:21 | 3285 | 691 | 7.8 | 3.7 | ||
| 2001-07-21T11:23 | 3846 | 645 | 3.6 | 1.8 | ||
| 2001-07-21T11:25 | 4576 | 589 | -0.1 | -0.2 | ||
| 2001-07-21T11:26 | 4753 | 576 | -0.3 | -3.0 | ||
| 2001-07-21T11:29 | 5528 | 522 | -6.5 | -7.6 | ||
| 2001-07-21T11:29 | 5633 | 515 | -4.7 | -14.7 | ||
| 2001-07-21T11:30 | 5880 | 500 | -4.9 | -24.9 | 335 | 9 |
| 2001-07-21T11:32 | 6696 | 450 | -10.9 | -23.9 | ||
| 2001-07-21T11:33 | 6868 | 440 | -12.7 | -18.7 | ||
| 2001-07-21T11:33 | 6955 | 435 | -12.3 | -35.3 | ||
| 2001-07-21T11:34 | 7114 | 426 | -12.7 | -45.7 | ||
| 2001-07-21T11:35 | 7600 | 400 | -15.9 | -44.9 | 315 | 12 |
| 2001-07-21T11:36 | 7905 | 384 | -18.3 | -43.3 | ||
| 2001-07-21T11:39 | 8736 | 343 | -23.9 | -32.9 | ||
| 2001-07-21T11:40 | 8951 | 333 | -24.9 | -37.9 | ||
| 2001-07-21T11:42 | 9700 | 300 | -31.3 | -43.3 | 325 | 21 |
| 2001-07-21T11:45 | 10563 | 265 | -38.3 | -51.3 | ||
| 2001-07-21T11:46 | 10960 | 250 | -42.1 | -52.1 | ||
| 2001-07-21T11:47 | 11290 | 238 | -44.9 | -51.9 | ||
| 2001-07-21T11:49 | 11663 | 225 | -47.1 | -63.1 | ||
| 2001-07-21T11:51 | 12440 | 200 | -53.3 | -71.3 | ||
| 2001-07-21T11:54 | 13177 | 178 | -59.7 | -73.7 | ||
| 2001-07-21T11:57 | 14230 | 150 | -66.1 | -78.1 | ||
| 2001-07-21T12:05 | 16640 | 100 | -67.9 | -77.9 | ||
| 2001-07-21T23:01 | 178 | 990 | 32.0 | 26.0 | 220 | 3 |
| 2001-07-21T23:03 | 784 | 925 | 25.8 | 23.1 | 250 | 3 |
| 2001-07-21T23:04 | 1158 | 886 | 22.2 | 22.2 | ||
| 2001-07-21T23:05 | 1524 | 850 | 20.0 | 17.9 | 320 | 6 |
| 2001-07-21T23:07 | 2019 | 802 | 17.4 | 11.4 | ||
| 2001-07-21T23:07 | 2157 | 789 | 16.2 | 13.1 | ||
| 2001-07-21T23:08 | 2341 | 772 | 15.2 | 10.2 | ||
| 2001-07-21T23:09 | 2651 | 744 | 12.8 | 10.3 | ||
| 2001-07-21T23:11 | 3173 | 700 | 9.8 | 4.9 | 330 | 10 |
| 2001-07-21T23:12 | 3497 | 673 | 8.2 | -1.8 | ||
| 2001-07-21T23:13 | 3694 | 657 | 7.2 | 1.2 | ||
| 2001-07-21T23:14 | 4076 | 627 | 4.6 | -2.4 | ||
| 2001-07-21T23:15 | 4580 | 589 | 2.4 | -13.6 | ||
| 2001-07-21T23:16 | 4732 | 578 | 2.0 | -13.0 | ||
| 2001-07-21T23:20 | 5831 | 503 | -6.7 | -18.7 | ||
| 2001-07-21T23:20 | 5890 | 500 | -6.7 | -21.7 | 335 | 11 |
| 2001-07-21T23:20 | 6047 | 490 | -6.9 | -25.9 | ||
| 2001-07-21T23:21 | 6191 | 481 | -8.1 | -16.1 | ||
| 2001-07-21T23:21 | 6304 | 474 | -8.9 | -17.9 | ||
| 2001-07-21T23:22 | 6518 | 461 | -9.3 | -33.3 | ||
| 2001-07-21T23:22 | 6704 | 450 | -10.5 | -37.5 | ||
| 2001-07-21T23:23 | 6824 | 443 | -11.5 | -24.5 | ||
| 2001-07-21T23:23 | 7016 | 432 | -12.3 | -28.3 | ||
| 2001-07-21T23:24 | 7069 | 429 | -12.9 | -21.9 | ||
| 2001-07-21T23:24 | 7194 | 422 | -13.7 | -29.7 | ||
| 2001-07-21T23:24 | 7248 | 419 | -13.7 | -24.7 | ||
| 2001-07-21T23:24 | 7302 | 416 | -13.7 | -31.7 | ||
| 2001-07-21T23:24 | 7338 | 414 | -14.1 | -22.1 | ||
| 2001-07-21T23:25 | 7393 | 411 | -14.5 | -20.5 | ||
| 2001-07-21T23:25 | 7411 | 410 | -14.7 | -21.7 | ||
| 2001-07-21T23:25 | 7466 | 407 | -14.5 | -35.5 | ||
| 2001-07-21T23:25 | 7600 | 400 | -15.7 | -24.7 | 310 | 14 |
| 2001-07-21T23:26 | 7676 | 396 | -16.5 | -21.3 | ||
| 2001-07-21T23:26 | 7926 | 383 | -17.3 | -24.3 | ||
| 2001-07-21T23:28 | 8282 | 365 | -20.5 | -28.5 | ||
| 2001-07-21T23:29 | 8737 | 343 | -24.3 | -28.3 | ||
| 2001-07-21T23:29 | 8865 | 337 | -24.9 | -34.9 | ||
| 2001-07-21T23:30 | 9061 | 328 | -26.5 | -41.5 | ||
| 2001-07-21T23:31 | 9283 | 318 | -28.1 | -42.1 | ||
| 2001-07-21T23:31 | 9442 | 311 | -29.3 | -38.3 | ||
| 2001-07-21T23:32 | 9710 | 300 | -31.1 | -41.1 | ||
| 2001-07-21T23:33 | 9876 | 293 | -32.5 | -41.5 | ||
| 2001-07-21T23:34 | 10193 | 280 | -35.1 | -37.0 | ||
| 2001-07-21T23:34 | 10343 | 274 | -35.9 | -40.9 | ||
| 2001-07-21T23:36 | 10705 | 260 | -38.1 | -48.1 | ||
| 2001-07-21T23:36 | 10980 | 250 | -40.1 | -51.1 | ||
| 2001-07-21T23:37 | 11117 | 245 | -40.7 | -52.7 | ||
| 2001-07-21T23:41 | 12460 | 200 | -52.7 | -59.7 | ||
| 2001-07-21T23:44 | 13235 | 177 | -59.1 | -62.3 | ||
| 2001-07-21T23:47 | 14260 | 150 | -66.3 | -73.3 | ||
| 2001-07-21T23:48 | 14632 | 141 | -68.7 | -75.7 | ||
| 2001-07-21T23:54 | 16258 | 107 | -73.9 | -79.9 | ||
| 2001-07-21T23:55 | 16660 | 100 | -69.7 | -76.7 | ||
| 2001-07-22T11:13 | 178 | 990 | 21.8 | 20.9 | 0 | 0 |
| 2001-07-22T11:14 | 374 | 968 | 28.0 | 25.3 | ||
| 2001-07-22T11:15 | 782 | 925 | 25.8 | 21.6 | 285 | 5 |
| 2001-07-22T11:16 | 1244 | 877 | 21.8 | 19.0 | ||
| 2001-07-22T11:17 | 1522 | 850 | 20.6 | 13.6 | 285 | 3 |
| 2001-07-22T11:18 | 1695 | 833 | 19.4 | 15.5 | ||
| 2001-07-22T11:20 | 2242 | 781 | 15.2 | 11.4 | ||
| 2001-07-22T11:22 | 2993 | 714 | 11.8 | 0.8 | ||
| 2001-07-22T11:23 | 3170 | 700 | 10.2 | 1.2 | 10 | 7 |
| 2001-07-22T11:26 | 4174 | 619 | 2.6 | -4.4 | ||
| 2001-07-22T11:27 | 4478 | 596 | 0.8 | -16.2 | ||
| 2001-07-22T11:27 | 4572 | 589 | 0.2 | -15.8 | ||
| 2001-07-22T11:28 | 4626 | 585 | -0.1 | -7.1 | ||
| 2001-07-22T11:29 | 5002 | 558 | -1.3 | -8.3 | ||
| 2001-07-22T11:29 | 5176 | 546 | -0.9 | -27.9 | ||
| 2001-07-22T11:31 | 5531 | 522 | -3.5 | -26.5 | ||
| 2001-07-22T11:32 | 5880 | 500 | -5.9 | -12.9 | 330 | 11 |
| 2001-07-22T11:33 | 6181 | 481 | -7.9 | -14.9 | ||
| 2001-07-22T11:33 | 6311 | 473 | -8.3 | -22.3 | ||
| 2001-07-22T11:34 | 6711 | 449 | -11.7 | -17.7 | ||
| 2001-07-22T11:35 | 7024 | 431 | -11.1 | -36.1 | ||
| 2001-07-22T11:37 | 7349 | 413 | -12.7 | -41.7 | ||
| 2001-07-22T11:37 | 7600 | 400 | -14.7 | -35.7 | 335 | 13 |
| 2001-07-22T11:39 | 8244 | 367 | -19.5 | -35.5 | ||
| 2001-07-22T11:43 | 9178 | 323 | -25.9 | -44.9 | ||
| 2001-07-22T11:44 | 9710 | 300 | -30.5 | -46.5 | 330 | 16 |
| 2001-07-22T11:48 | 10980 | 250 | -40.7 | -56.7 | 330 | 12 |
| 2001-07-22T11:53 | 12450 | 200 | -53.7 | -67.7 | 335 | 12 |
| 2001-07-22T11:59 | 14250 | 150 | -67.1 | -77.1 | 310 | 13 |
| 2001-07-22T12:00 | 14495 | 144 | -68.9 | -77.9 | ||
| 2001-07-22T12:04 | 15582 | 120 | -69.1 | -78.1 | ||
| 2001-07-22T12:06 | 16482 | 103 | -73.5 | -82.5 | ||
| 2001-07-22T12:07 | 16650 | 100 | -72.9 | -81.9 | 40 | 5 |
| 2001-07-22T23:01 | 178 | 989 | 34.2 | 26.2 | 200 | 3 |
| 2001-07-22T23:03 | 782 | 925 | 28.0 | 21.0 | 195 | 3 |
| 2001-07-22T23:05 | 1357 | 866 | 22.8 | 17.8 | ||
| 2001-07-22T23:05 | 1526 | 850 | 21.8 | 15.8 | 175 | 2 |
| 2001-07-22T23:08 | 2370 | 770 | 17.0 | 6.0 | ||
| 2001-07-22T23:09 | 2739 | 737 | 13.8 | 4.8 | ||
| 2001-07-22T23:10 | 2796 | 732 | 13.2 | 8.2 | ||
| 2001-07-22T23:10 | 2807 | 731 | 13.0 | 5.0 | ||
| 2001-07-22T23:11 | 3181 | 700 | 10.4 | 3.4 | 280 | 2 |
| 2001-07-22T23:11 | 3217 | 697 | 10.0 | 4.0 | ||
| 2001-07-22T23:12 | 3433 | 679 | 8.8 | -2.2 | ||
| 2001-07-22T23:13 | 3879 | 643 | 6.0 | -8.0 | ||
| 2001-07-22T23:14 | 4097 | 626 | 4.0 | -5.0 | ||
| 2001-07-22T23:14 | 4176 | 620 | 3.8 | -11.2 | ||
| 2001-07-22T23:15 | 4333 | 608 | 2.8 | -13.2 | ||
| 2001-07-22T23:15 | 4399 | 603 | 2.2 | -7.8 | ||
| 2001-07-22T23:15 | 4574 | 590 | 2.6 | -12.4 | ||
| 2001-07-22T23:18 | 5474 | 527 | -3.3 | -15.3 | ||
| 2001-07-22T23:20 | 5900 | 500 | -4.7 | -19.7 | 310 | 13 |
| 2001-07-22T23:22 | 6500 | 463 | -6.9 | -32.9 | ||
| 2001-07-22T23:25 | 7630 | 400 | -14.9 | -30.9 | 295 | 14 |
| 2001-07-22T23:32 | 9740 | 300 | -29.7 | -54.7 | 310 | 12 |
| 2001-07-22T23:37 | 11010 | 250 | -40.5 | -61.5 | 320 | 10 |
| 2001-07-22T23:41 | 12490 | 200 | -53.1 | -68.1 | 315 | 10 |
| 2001-07-22T23:47 | 14290 | 150 | -65.9 | -77.9 | 230 | 9 |
| 2001-07-22T23:48 | 14494 | 145 | -67.9 | -79.9 | ||
| 2001-07-22T23:52 | 15870 | 115 | -71.7 | -83.7 | ||
| 2001-07-22T23:55 | 16710 | 100 | -68.5 | -80.5 | 360 | 5 |
| 2001-07-23T11:07 | 178 | 991 | 22.4 | 21.5 | 130 | 3 |
| 2001-07-23T11:07 | 239 | 984 | 24.2 | 24.2 | ||
| 2001-07-23T11:08 | 455 | 960 | 28.2 | 22.2 | ||
| 2001-07-23T11:08 | 576 | 947 | 28.4 | 21.4 | ||
| 2001-07-23T11:09 | 785 | 925 | 26.8 | 19.8 | 225 | 8 |
| 2001-07-23T11:11 | 1249 | 877 | 23.0 | 18.0 | ||
| 2001-07-23T11:11 | 1527 | 850 | 21.6 | 12.6 | 250 | 5 |
| 2001-07-23T11:16 | 2912 | 722 | 13.2 | 0.2 | ||
| 2001-07-23T11:17 | 3181 | 700 | 10.8 | -2.2 | 0 | 0 |
| 2001-07-23T11:18 | 3641 | 662 | 7.0 | -3.0 | ||
| 2001-07-23T11:19 | 3904 | 641 | 4.8 | 1.0 | ||
| 2001-07-23T11:20 | 4019 | 632 | 4.0 | 0.0 | ||
| 2001-07-23T11:20 | 4096 | 626 | 4.6 | -9.4 | ||
| 2001-07-23T11:20 | 4174 | 620 | 4.4 | -12.6 | ||
| 2001-07-23T11:23 | 5189 | 546 | -3.9 | -4.6 | ||
| 2001-07-23T11:24 | 5394 | 532 | -2.7 | -6.5 | ||
| 2001-07-23T11:26 | 5890 | 500 | -5.9 | -10.6 | 305 | 5 |
| 2001-07-23T11:26 | 6000 | 493 | -6.3 | -12.3 | ||
| 2001-07-23T11:27 | 6160 | 483 | -6.7 | -19.7 | ||
| 2001-07-23T11:27 | 6257 | 477 | -7.3 | -19.3 | ||
| 2001-07-23T11:27 | 6372 | 470 | -7.5 | -36.5 | ||
| 2001-07-23T11:31 | 7620 | 400 | -14.5 | -32.5 | 305 | 7 |
| 2001-07-23T11:34 | 8447 | 358 | -21.5 | -32.5 | ||
| 2001-07-23T11:38 | 9720 | 300 | -31.5 | -44.5 | 280 | 12 |
| 2001-07-23T11:40 | 10253 | 278 | -35.1 | -53.1 | ||
| 2001-07-23T11:42 | 10990 | 250 | -40.9 | -59.9 | 270 | 10 |
| 2001-07-23T11:47 | 12470 | 200 | -51.7 | -69.7 | 285 | 13 |
| 2001-07-23T11:53 | 14270 | 150 | -65.9 | -77.9 | 330 | 13 |
| 2001-07-23T11:54 | 14558 | 143 | -68.1 | -79.1 | ||
| 2001-07-23T11:58 | 15801 | 116 | -71.3 | -81.3 | ||
| 2001-07-23T11:59 | 16117 | 110 | -67.9 | -78.9 | ||
| 2001-07-23T12:01 | 16690 | 100 | -69.7 | -80.7 | 245 | 2 |
| 2001-07-23T23:00 | 178 | 990 | 23.8 | 22.9 | 180 | 5 |
| 2001-07-23T23:00 | 213 | 986 | 24.8 | 21.4 | ||
| 2001-07-23T23:01 | 509 | 953 | 25.2 | 20.2 | ||
| 2001-07-23T23:02 | 713 | 931 | 28.2 | 16.2 | ||
| 2001-07-23T23:02 | 776 | 925 | 27.6 | 17.6 | 225 | 4 |
| 2001-07-23T23:02 | 824 | 920 | 27.2 | 18.2 | ||
| 2001-07-23T23:02 | 891 | 913 | 28.0 | 11.0 | ||
| 2001-07-23T23:04 | 1522 | 850 | 23.6 | 10.6 | 290 | 6 |
| 2001-07-23T23:07 | 2379 | 769 | 16.2 | 9.2 | ||
| 2001-07-23T23:09 | 3049 | 710 | 12.0 | 2.0 | ||
| 2001-07-23T23:10 | 3179 | 700 | 10.8 | 4.8 | 285 | 7 |
| 2001-07-23T23:11 | 3516 | 672 | 7.8 | 4.4 | ||
| 2001-07-23T23:12 | 3977 | 635 | 4.0 | 0.0 | ||
| 2001-07-23T23:14 | 4353 | 606 | 0.6 | -0.4 | ||
| 2001-07-23T23:14 | 4406 | 602 | -0.1 | -3.0 | ||
| 2001-07-23T23:15 | 4814 | 572 | -0.1 | -0.7 | ||
| 2001-07-23T23:18 | 5615 | 517 | -3.7 | -4.8 | ||
| 2001-07-23T23:19 | 5890 | 500 | 325 | 11 | ||
| 2001-07-23T23:19 | 6051 | 489 | -6.1 | -6.9 | ||
| 2001-07-23T23:24 | 7620 | 400 | -15.3 | -16.7 | 320 | 9 |
| 2001-07-23T23:28 | 8614 | 350 | -21.1 | -23.1 | ||
| 2001-07-23T23:31 | 9730 | 300 | -29.3 | -31.8 | 315 | 6 |
| 2001-07-23T23:36 | 11010 | 250 | -39.3 | -42.2 | 240 | 4 |
| 2001-07-23T23:40 | 12490 | 200 | -52.5 | -55.4 | 85 | 7 |
| 2001-07-23T23:46 | 14290 | 150 | -66.7 | -69.9 | 115 | 8 |
| 2001-07-23T23:47 | 14535 | 144 | -68.5 | -71.6 | ||
| 2001-07-23T23:54 | 16660 | 100 | -75.9 | -78.9 | 255 | 2 |
| 2001-07-24T11:10 | 178 | 992 | 21.8 | 20.9 | 0 | 0 |
| 2001-07-24T11:11 | 444 | 962 | 24.8 | 21.0 | ||
| 2001-07-24T11:12 | 790 | 925 | 23.8 | 20.2 | 20 | 3 |
| 2001-07-24T11:13 | 1017 | 901 | 22.6 | 20.5 | ||
| 2001-07-24T11:13 | 1201 | 882 | 22.4 | 17.4 | ||
| 2001-07-24T11:14 | 1528 | 850 | 20.0 | 14.0 | 290 | 4 |
| 2001-07-24T11:20 | 3172 | 700 | 8.8 | 7.1 | 360 | 1 |
| 2001-07-24T11:21 | 3593 | 665 | 6.4 | 4.2 | ||
| 2001-07-24T11:22 | 3855 | 644 | 6.2 | -3.8 | ||
| 2001-07-24T11:23 | 4216 | 616 | 3.4 | -2.6 | ||
| 2001-07-24T11:23 | 4282 | 611 | 3.8 | -12.2 | ||
| 2001-07-24T11:24 | 4442 | 599 | 3.0 | -8.0 | ||
| 2001-07-24T11:25 | 4619 | 586 | 3.2 | -20.8 | ||
| 2001-07-24T11:27 | 5394 | 532 | -0.5 | -39.5 | ||
| 2001-07-24T11:29 | 5900 | 500 | -3.7 | -41.7 | 15 | 2 |
| 2001-07-24T11:31 | 6518 | 462 | -6.9 | -38.9 | ||
| 2001-07-24T11:32 | 6860 | 442 | -9.9 | -28.9 | ||
| 2001-07-24T11:32 | 6965 | 436 | -10.9 | -21.9 | ||
| 2001-07-24T11:34 | 7620 | 400 | -15.9 | -26.9 | 10 | 5 |
| 2001-07-24T11:39 | 8996 | 332 | -24.7 | -43.7 | ||
| 2001-07-24T11:41 | 9730 | 300 | -30.9 | -45.9 | 315 | 3 |
| 2001-07-24T11:43 | 10091 | 285 | -33.9 | -36.3 | ||
| 2001-07-24T11:44 | 10518 | 268 | -37.3 | -46.3 | ||
| 2001-07-24T11:45 | 10990 | 250 | -40.9 | -49.9 | 285 | 9 |
| 2001-07-24T11:50 | 12470 | 200 | -53.1 | -57.9 | 210 | 10 |
| 2001-07-24T11:51 | 12698 | 193 | -55.1 | -59.5 | ||
| 2001-07-24T11:51 | 12798 | 190 | -56.1 | -58.3 | ||
| 2001-07-24T11:52 | 12865 | 188 | -56.3 | -60.8 | ||
| 2001-07-24T11:56 | 14098 | 154 | -66.7 | -71.7 | ||
| 2001-07-24T11:56 | 14260 | 150 | -66.5 | -71.5 | 255 | 11 |
| 2001-07-24T12:03 | 16207 | 108 | -73.9 | -80.9 | ||
| 2001-07-24T12:04 | 16660 | 100 | -72.9 | -79.9 | 230 | 3 |
| 2001-07-24T23:00 | 178 | 989 | 30.0 | 25.4 | 170 | 4 |
| 2001-07-24T23:02 | 776 | 925 | 24.4 | 22.0 | 190 | 5 |
| 2001-07-24T23:02 | 889 | 913 | 23.4 | 21.8 | ||
| 2001-07-24T23:03 | 1100 | 891 | 23.0 | 19.4 | ||
| 2001-07-24T23:04 | 1405 | 860 | 20.2 | 18.3 | ||
| 2001-07-24T23:04 | 1514 | 850 | 19.8 | 16.7 | 175 | 5 |
| 2001-07-24T23:05 | 1707 | 831 | 19.0 | 13.0 | ||
| 2001-07-24T23:07 | 2441 | 762 | 14.8 | 10.1 | ||
| 2001-07-24T23:08 | 2665 | 742 | 14.8 | 5.8 | ||
| 2001-07-24T23:09 | 2906 | 721 | 13.0 | 5.0 | ||
| 2001-07-24T23:09 | 3023 | 711 | 13.4 | -11.6 | ||
| 2001-07-24T23:10 | 3166 | 700 | 12.2 | -11.8 | 110 | 7 |
| 2001-07-24T23:11 | 3456 | 676 | 10.0 | -24.0 | ||
| 2001-07-24T23:14 | 4321 | 608 | 2.4 | -1.9 | ||
| 2001-07-24T23:14 | 4401 | 602 | 2.8 | -14.2 | ||
| 2001-07-24T23:14 | 4536 | 592 | 2.2 | -21.8 | ||
| 2001-07-24T23:16 | 4952 | 562 | -0.9 | -21.9 | ||
| 2001-07-24T23:16 | 5037 | 556 | -0.1 | -29.1 | ||
| 2001-07-24T23:17 | 5284 | 539 | -1.7 | -21.7 | ||
| 2001-07-24T23:17 | 5447 | 528 | -2.1 | -36.1 | ||
| 2001-07-24T23:18 | 5568 | 520 | -2.9 | -16.9 | ||
| 2001-07-24T23:18 | 5768 | 507 | -3.3 | -41.3 | ||
| 2001-07-24T23:19 | 5890 | 500 | -3.7 | -38.7 | 275 | 6 |
| 2001-07-24T23:20 | 6210 | 480 | -5.7 | -42.7 | ||
| 2001-07-24T23:22 | 6988 | 434 | -11.7 | -22.7 | ||
| 2001-07-24T23:24 | 7493 | 406 | -15.5 | -25.5 | ||
| 2001-07-24T23:24 | 7610 | 400 | -16.1 | -29.1 | 225 | 6 |
| 2001-07-24T23:25 | 7935 | 383 | -18.3 | -33.3 | ||
| 2001-07-24T23:27 | 8353 | 362 | -20.1 | -43.1 | ||
| 2001-07-24T23:29 | 8965 | 333 | -23.9 | -39.9 | ||
| 2001-07-24T23:31 | 9720 | 300 | -30.3 | -43.3 | 265 | 6 |
| 2001-07-24T23:33 | 10181 | 281 | -33.9 | -38.1 | ||
| 2001-07-24T23:35 | 10990 | 250 | -40.5 | -44.5 | 235 | 9 |
| 2001-07-24T23:37 | 11580 | 229 | -45.5 | -52.5 | ||
| 2001-07-24T23:40 | 12470 | 200 | -52.7 | -59.7 | 265 | 7 |
| 2001-07-24T23:42 | 13140 | 180 | -58.3 | -65.3 | ||
| 2001-07-24T23:46 | 14270 | 150 | -65.9 | -73.9 | 255 | 11 |
| 2001-07-24T23:53 | 16439 | 104 | -74.7 | -80.7 | ||
| 2001-07-24T23:54 | 16660 | 100 | -68.9 | -75.9 | 225 | 8 |
| 2001-07-25T11:01 | 178 | 989 | 23.4 | 22.7 | 170 | 2 |
| 2001-07-25T11:02 | 454 | 958 | 23.4 | 23.4 | ||
| 2001-07-25T11:02 | 591 | 943 | 24.4 | 22.8 | ||
| 2001-07-25T11:03 | 768 | 925 | 23.6 | 22.7 | 215 | 4 |
| 2001-07-25T11:05 | 1504 | 850 | 19.0 | 17.3 | 230 | 4 |
| 2001-07-25T11:06 | 1769 | 824 | 18.8 | 12.8 | ||
| 2001-07-25T11:07 | 2127 | 790 | 16.4 | 12.4 | ||
| 2001-07-25T11:09 | 2509 | 755 | 14.6 | 5.6 | ||
| 2001-07-25T11:10 | 2929 | 718 | 11.2 | 2.2 | ||
| 2001-07-25T11:11 | 3152 | 700 | 9.8 | 1.8 | 260 | 4 |
| 2001-07-25T11:11 | 3259 | 691 | 9.0 | 0.0 | ||
| 2001-07-25T11:11 | 3355 | 683 | 7.8 | 4.7 | ||
| 2001-07-25T11:12 | 3599 | 663 | 8.0 | 3.0 | ||
| 2001-07-25T11:14 | 4290 | 609 | 2.6 | -0.2 | ||
| 2001-07-25T11:20 | 5870 | 500 | -5.9 | -8.7 | 220 | 5 |
| 2001-07-25T11:20 | 6076 | 487 | -6.5 | -10.5 | ||
| 2001-07-25T11:23 | 6857 | 440 | -12.3 | -13.9 | ||
| 2001-07-25T11:25 | 7590 | 400 | -16.5 | -18.3 | 290 | 6 |
| 2001-07-25T11:29 | 8810 | 339 | -24.7 | -26.6 | ||
| 2001-07-25T11:32 | 9690 | 300 | -30.7 | 295 | 14 | |
| 2001-07-25T11:36 | 10960 | 250 | -41.1 | 290 | 12 | |
| 2001-07-25T11:41 | 12430 | 200 | -53.3 | 285 | 16 | |
| 2001-07-25T11:46 | 13899 | 158 | -66.3 | |||
| 2001-07-25T11:47 | 14220 | 150 | -67.5 | 265 | 14 | |
| 2001-07-25T11:52 | 15655 | 118 | -69.1 | |||
| 2001-07-25T11:53 | 16179 | 108 | -72.3 | |||
| 2001-07-25T11:55 | 16630 | 100 | -70.1 | 285 | 9 | |
| 2001-07-25T23:00 | 178 | 991 | 27.2 | 22.7 | 300 | 5 |
| 2001-07-25T23:02 | 789 | 925 | 21.6 | 21.3 | 290 | 5 |
| 2001-07-25T23:02 | 826 | 921 | 21.2 | 21.2 | ||
| 2001-07-25T23:04 | 1520 | 850 | 17.4 | 17.4 | 305 | 3 |
| 2001-07-25T23:09 | 2793 | 730 | 9.4 | 8.3 | ||
| 2001-07-25T23:10 | 3156 | 700 | 8.2 | 5.9 | 290 | 7 |
| 2001-07-25T23:10 | 3215 | 695 | 7.8 | 6.1 | ||
| 2001-07-25T23:10 | 3322 | 686 | 7.2 | 2.7 | ||
| 2001-07-25T23:12 | 3862 | 642 | 4.6 | 2.0 | ||
| 2001-07-25T23:13 | 4079 | 625 | 4.0 | -2.0 | ||
| 2001-07-25T23:15 | 4762 | 574 | -0.9 | -10.9 | ||
| 2001-07-25T23:16 | 4958 | 560 | -2.9 | -7.4 | ||
| 2001-07-25T23:18 | 5556 | 519 | -4.7 | -4.7 | ||
| 2001-07-25T23:19 | 5860 | 500 | -6.5 | -6.5 | 295 | 9 |
| 2001-07-25T23:22 | 6827 | 441 | -12.5 | -12.6 | ||
| 2001-07-25T23:22 | 6984 | 432 | -11.5 | -12.6 | ||
| 2001-07-25T23:24 | 7580 | 400 | -14.7 | -17.9 | 280 | 13 |
| 2001-07-25T23:26 | 8105 | 373 | -17.3 | -23.3 | ||
| 2001-07-25T23:31 | 9700 | 300 | -30.1 | -34.6 | 255 | 13 |
| 2001-07-25T23:32 | 10037 | 286 | -32.9 | -36.5 | ||
| 2001-07-25T23:35 | 10970 | 250 | -40.1 | -46.1 | 255 | 14 |
| 2001-07-25T23:40 | 12450 | 200 | -52.1 | -61.1 | 240 | 16 |
| 2001-07-25T23:46 | 14250 | 150 | -65.7 | -72.7 | 260 | 13 |
| 2001-07-25T23:48 | 14792 | 137 | -70.9 | -77.9 | ||
| 2001-07-25T23:54 | 16660 | 100 | -67.1 | -74.1 | 315 | 9 |
| 2001-07-26T11:01 | 178 | 995 | 18.6 | 17.3 | 30 | 4 |
| 2001-07-26T11:02 | 563 | 951 | 17.6 | 17.6 | ||
| 2001-07-26T11:03 | 644 | 942 | 19.4 | 18.6 | ||
| 2001-07-26T11:03 | 806 | 925 | 19.2 | 17.5 | 65 | 8 |
| 2001-07-26T11:04 | 1067 | 897 | 17.0 | 17.0 | ||
| 2001-07-26T11:04 | 1172 | 886 | 18.2 | 16.9 | ||
| 2001-07-26T11:05 | 1532 | 850 | 17.2 | 13.2 | 360 | 5 |
| 2001-07-26T11:06 | 1713 | 832 | 16.8 | 13.4 | ||
| 2001-07-26T11:09 | 2560 | 752 | 10.8 | 9.2 | ||
| 2001-07-26T11:10 | 2943 | 718 | 9.6 | 6.7 | ||
| 2001-07-26T11:11 | 3167 | 700 | 9.2 | 1.2 | 310 | 4 |
| 2001-07-26T11:12 | 3454 | 676 | 7.4 | -4.6 | ||
| 2001-07-26T11:13 | 3736 | 653 | 5.0 | 0.0 | ||
| 2001-07-26T11:13 | 3824 | 646 | 5.4 | -2.6 | ||
| 2001-07-26T11:17 | 5027 | 556 | -2.5 | -15.5 | ||
| 2001-07-26T11:18 | 5213 | 543 | -4.3 | -10.3 | ||
| 2001-07-26T11:18 | 5345 | 534 | -2.9 | -14.9 | ||
| 2001-07-26T11:18 | 5464 | 526 | -3.5 | -28.5 | ||
| 2001-07-26T11:19 | 5661 | 513 | -4.5 | -28.5 | ||
| 2001-07-26T11:20 | 5831 | 502 | -5.9 | -15.9 | ||
| 2001-07-26T11:20 | 5870 | 500 | -5.7 | -17.7 | 305 | 7 |
| 2001-07-26T11:20 | 6028 | 490 | -6.1 | -25.1 | ||
| 2001-07-26T11:22 | 6433 | 465 | -10.1 | -32.1 | ||
| 2001-07-26T11:22 | 6550 | 458 | -8.7 | -42.7 | ||
| 2001-07-26T11:23 | 7000 | 432 | -10.5 | -50.5 | ||
| 2001-07-26T11:25 | 7590 | 400 | -15.9 | -51.9 | 310 | 11 |
| 2001-07-26T11:27 | 8130 | 372 | -20.5 | -53.5 | ||
| 2001-07-26T11:30 | 8962 | 332 | -24.7 | -51.7 | ||
| 2001-07-26T11:32 | 9690 | 300 | -31.5 | -53.5 | 300 | 17 |
| 2001-07-26T11:36 | 10960 | 250 | -42.1 | -62.1 | 295 | 18 |
| 2001-07-26T11:41 | 12430 | 200 | -52.5 | -73.5 | 295 | 28 |
| 2001-07-26T11:47 | 14230 | 150 | -66.5 | -82.5 | 310 | 25 |
| 2001-07-26T11:48 | 14434 | 145 | -68.3 | -84.3 | ||
| 2001-07-26T11:51 | 15315 | 125 | -71.5 | -86.5 | ||
| 2001-07-26T11:55 | 16650 | 100 | -68.3 | -83.3 | 290 | 7 |
| 2001-07-26T23:04 | 178 | 997 | 26.0 | 18.0 | 60 | 6 |
| 2001-07-26T23:06 | 834 | 925 | 20.0 | 15.3 | 65 | 8 |
| 2001-07-26T23:09 | 1557 | 850 | 13.6 | 13.0 | 70 | 7 |
| 2001-07-26T23:09 | 1726 | 833 | 12.2 | 12.0 | ||
| 2001-07-26T23:09 | 1756 | 830 | 12.4 | 10.8 | ||
| 2001-07-26T23:09 | 1807 | 825 | 14.2 | 2.2 | ||
| 2001-07-26T23:10 | 1869 | 819 | 16.6 | -2.4 | ||
| 2001-07-26T23:11 | 2464 | 763 | 12.0 | -1.0 | ||
| 2001-07-26T23:13 | 2969 | 718 | 10.2 | -14.8 | ||
| 2001-07-26T23:14 | 3186 | 700 | 8.6 | -8.4 | 335 | 4 |
| 2001-07-26T23:15 | 3449 | 678 | 8.8 | -35.2 | ||
| 2001-07-26T23:18 | 4578 | 590 | 1.2 | -22.8 | ||
| 2001-07-26T23:19 | 4826 | 572 | 0.0 | -14.0 | ||
| 2001-07-26T23:20 | 4995 | 560 | -0.5 | -21.5 | ||
| 2001-07-26T23:20 | 5109 | 552 | -1.3 | -17.3 | ||
| 2001-07-26T23:21 | 5372 | 534 | -1.9 | -20.9 | ||
| 2001-07-26T23:21 | 5432 | 530 | -2.1 | -16.1 | ||
| 2001-07-26T23:22 | 5659 | 515 | -3.3 | -24.3 | ||
| 2001-07-26T23:23 | 5900 | 500 | -4.9 | -22.9 | 315 | 9 |
| 2001-07-26T23:24 | 6382 | 470 | -8.1 | -20.1 | ||
| 2001-07-26T23:25 | 6582 | 458 | -8.1 | -44.1 | ||
| 2001-07-26T23:26 | 7015 | 433 | -9.9 | -47.9 | ||
| 2001-07-26T23:28 | 7487 | 407 | -13.9 | -48.9 | ||
| 2001-07-26T23:28 | 7620 | 400 | -15.1 | -34.1 | 280 | 10 |
| 2001-07-26T23:30 | 8203 | 370 | -18.9 | -45.9 | ||
| 2001-07-26T23:32 | 8655 | 348 | -22.9 | -37.9 | ||
| 2001-07-26T23:35 | 9730 | 300 | -32.1 | -46.1 | 320 | 11 |
| 2001-07-26T23:37 | 10212 | 280 | -35.9 | -46.9 | ||
| 2001-07-26T23:38 | 10489 | 269 | -37.5 | -43.5 | ||
| 2001-07-26T23:39 | 10990 | 250 | -40.9 | -45.9 | 290 | 23 |
| 2001-07-26T23:44 | 12470 | 200 | -53.3 | -57.8 | 285 | 27 |
| 2001-07-26T23:48 | 13460 | 171 | -60.1 | -69.1 | ||
| 2001-07-26T23:50 | 14270 | 150 | -65.3 | -73.3 | 280 | 21 |
| 2001-07-26T23:56 | 16018 | 112 | -71.1 | -79.1 | ||
| 2001-07-26T23:58 | 16680 | 100 | -70.9 | -78.9 | 310 | 10 |
| 2001-07-27T11:02 | 178 | 1000 | 16.8 | 16.1 | 80 | 5 |
| 2001-07-27T11:03 | 508 | 962 | 20.0 | 15.0 | ||
| 2001-07-27T11:04 | 847 | 925 | 18.0 | 15.4 | 105 | 8 |
| 2001-07-27T11:06 | 1385 | 868 | 14.6 | 13.5 | ||
| 2001-07-27T11:06 | 1453 | 861 | 14.6 | 13.3 | ||
| 2001-07-27T11:07 | 1567 | 850 | 15.4 | 4.4 | 135 | 4 |
| 2001-07-27T11:07 | 1637 | 843 | 16.0 | -6.0 | ||
| 2001-07-27T11:07 | 1738 | 833 | 16.2 | -7.8 | ||
| 2001-07-27T11:08 | 2016 | 806 | 14.6 | 0.6 | ||
| 2001-07-27T11:10 | 2540 | 757 | 11.2 | -3.8 | ||
| 2001-07-27T11:10 | 2706 | 742 | 10.8 | -10.2 | ||
| 2001-07-27T11:12 | 3194 | 700 | 8.6 | -8.4 | 220 | 2 |
| 2001-07-27T11:12 | 3348 | 687 | 9.2 | -21.8 | ||
| 2001-07-27T11:14 | 3777 | 652 | 5.8 | -7.2 | ||
| 2001-07-27T11:15 | 4185 | 620 | 3.0 | -11.0 | ||
| 2001-07-27T11:16 | 4571 | 591 | 2.4 | -20.6 | ||
| 2001-07-27T11:19 | 5513 | 525 | -3.7 | -19.7 | ||
| 2001-07-27T11:20 | 5603 | 519 | -3.5 | -28.5 | ||
| 2001-07-27T11:21 | 5910 | 500 | -5.1 | -28.1 | 230 | 6 |
| 2001-07-27T11:22 | 6326 | 474 | -7.3 | -42.3 | ||
| 2001-07-27T11:23 | 6592 | 458 | -9.3 | -43.3 | ||
| 2001-07-27T11:24 | 6884 | 441 | -8.7 | -29.7 | ||
| 2001-07-27T11:26 | 7479 | 408 | -13.9 | -23.9 | ||
| 2001-07-27T11:26 | 7630 | 400 | -14.5 | -25.5 | 265 | 8 |
| 2001-07-27T11:29 | 8561 | 353 | -21.9 | -34.9 | ||
| 2001-07-27T11:33 | 9730 | 300 | -32.9 | -36.0 | 280 | 9 |
| 2001-07-27T11:34 | 9871 | 294 | -34.1 | -36.8 | ||
| 2001-07-27T11:35 | 10260 | 278 | -35.9 | -45.9 | ||
| 2001-07-27T11:36 | 10616 | 264 | -38.9 | -49.9 | ||
| 2001-07-27T11:37 | 10990 | 250 | -41.9 | -50.9 | 300 | 18 |
| 2001-07-27T11:40 | 11663 | 226 | -47.5 | -53.5 | ||
| 2001-07-27T11:42 | 12460 | 200 | -53.9 | -60.9 | 300 | 21 |
| 2001-07-27T11:47 | 13853 | 160 | -64.9 | -70.9 | ||
| 2001-07-27T11:48 | 14250 | 150 | -66.1 | -72.1 | 315 | 15 |
| 2001-07-27T11:56 | 16660 | 100 | -68.9 | -75.9 | 335 | 7 |
| 2001-07-27T23:01 | 178 | 997 | 26.6 | 20.6 | 115 | 6 |
| 2001-07-27T23:03 | 833 | 925 | 20.4 | 17.3 | 120 | 7 |
| 2001-07-27T23:06 | 1559 | 850 | 15.2 | 13.6 | 155 | 6 |
| 2001-07-27T23:06 | 1699 | 836 | 14.2 | 13.6 | ||
| 2001-07-27T23:09 | 2572 | 753 | 11.4 | 7.9 | ||
| 2001-07-27T23:10 | 2921 | 722 | 10.2 | -0.8 | ||
| 2001-07-27T23:10 | 3060 | 710 | 10.0 | 1.0 | ||
| 2001-07-27T23:11 | 3190 | 700 | 8.6 | 5.6 | 240 | 6 |
| 2001-07-27T23:14 | 3998 | 634 | 4.0 | 2.3 | ||
| 2001-07-27T23:18 | 5313 | 538 | -1.7 | -5.5 | ||
| 2001-07-27T23:20 | 5910 | 500 | -6.1 | -8.4 | 290 | 13 |
| 2001-07-27T23:22 | 6606 | 457 | -10.3 | -11.4 | ||
| 2001-07-27T23:24 | 7160 | 425 | -13.5 | -16.7 | ||
| 2001-07-27T23:25 | 7524 | 405 | -14.9 | -17.7 | ||
| 2001-07-27T23:25 | 7620 | 400 | -14.3 | -19.2 | 270 | 16 |
| 2001-07-27T23:26 | 7850 | 388 | -15.5 | -21.5 | ||
| 2001-07-27T23:30 | 8958 | 334 | -24.5 | -27.1 | ||
| 2001-07-27T23:32 | 9740 | 300 | -30.1 | -33.5 | 285 | 18 |
| 2001-07-27T23:35 | 10479 | 270 | -35.9 | -41.9 | ||
| 2001-07-27T23:37 | 11010 | 250 | -40.5 | -46.5 | 275 | 16 |
| 2001-07-27T23:41 | 12490 | 200 | -53.3 | -60.3 | 280 | 21 |
| 2001-07-27T23:47 | 14280 | 150 | -65.1 | -73.1 | 290 | 17 |
| 2001-07-27T23:52 | 15754 | 117 | -74.9 | -81.9 | ||
| 2001-07-27T23:52 | 15855 | 115 | -71.5 | -78.5 | ||
| 2001-07-27T23:55 | 16680 | 100 | -70.5 | -77.5 | 320 | 8 |
| 2001-07-28T11:02 | 178 | 996 | 21.8 | 20.9 | 120 | 2 |
| 2001-07-28T11:04 | 822 | 925 | 19.4 | 19.4 | 220 | 5 |
| 2001-07-28T11:06 | 1549 | 850 | 16.6 | 16.4 | 235 | 5 |
| 2001-07-28T11:12 | 3181 | 700 | 7.8 | 7.6 | 275 | 7 |
| 2001-07-28T11:13 | 3564 | 668 | 7.0 | 4.5 | ||
| 2001-07-28T11:14 | 3989 | 634 | 4.0 | 1.2 | ||
| 2001-07-28T11:16 | 4367 | 605 | 2.8 | -1.0 | ||
| 2001-07-28T11:16 | 4434 | 600 | 3.2 | -6.8 | ||
| 2001-07-28T11:18 | 5043 | 556 | -1.7 | -8.7 | ||
| 2001-07-28T11:20 | 5800 | 505 | -5.9 | -10.9 | ||
| 2001-07-28T11:21 | 5890 | 500 | -6.1 | -12.1 | 285 | 11 |
| 2001-07-28T11:22 | 6240 | 478 | -7.3 | -24.3 | ||
| 2001-07-28T11:22 | 6354 | 471 | -8.3 | -23.3 | ||
| 2001-07-28T11:23 | 6437 | 466 | -8.1 | -32.1 | ||
| 2001-07-28T11:25 | 7090 | 428 | -12.7 | -28.7 | ||
| 2001-07-28T11:25 | 7324 | 415 | -14.7 | -22.7 | ||
| 2001-07-28T11:26 | 7610 | 400 | -16.1 | -26.1 | 245 | 15 |
| 2001-07-28T11:29 | 8391 | 360 | -22.5 | -25.1 | ||
| 2001-07-28T11:29 | 8493 | 355 | -22.9 | -27.9 | ||
| 2001-07-28T11:32 | 9198 | 322 | -28.3 | -34.3 | ||
| 2001-07-28T11:33 | 9710 | 300 | -31.9 | -41.9 | 265 | 13 |
| 2001-07-28T11:35 | 10168 | 281 | -34.5 | -50.5 | ||
| 2001-07-28T11:37 | 10970 | 250 | -40.5 | -44.6 | 275 | 23 |
| 2001-07-28T11:42 | 12450 | 200 | -52.9 | -58.9 | 275 | 22 |
| 2001-07-28T11:47 | 13845 | 160 | -65.3 | -70.3 | ||
| 2001-07-28T11:48 | 14240 | 150 | -68.1 | -72.7 | 280 | 17 |
| 2001-07-28T11:56 | 16640 | 100 | -68.1 | -74.1 | 265 | 6 |
| 2001-07-28T23:07 | 178 | 993 | 25.6 | 23.8 | 270 | 3 |
| 2001-07-28T23:07 | 249 | 985 | 25.6 | 20.6 | ||
| 2001-07-28T23:08 | 392 | 969 | 25.8 | 21.9 | ||
| 2001-07-28T23:09 | 802 | 925 | 22.4 | 20.3 | 255 | 5 |
| 2001-07-28T23:11 | 1533 | 850 | 17.8 | 14.7 | 325 | 7 |
| 2001-07-28T23:16 | 2773 | 733 | 9.6 | 9.6 | ||
| 2001-07-28T23:17 | 3169 | 700 | 8.2 | 8.2 | 265 | 7 |
| 2001-07-28T23:18 | 3443 | 677 | 7.4 | 7.2 | ||
| 2001-07-28T23:20 | 4261 | 612 | 1.4 | 1.4 | ||
| 2001-07-28T23:26 | 5880 | 500 | -6.3 | -7.0 | 265 | 11 |
| 2001-07-28T23:26 | 6085 | 487 | -7.7 | -8.5 | ||
| 2001-07-28T23:27 | 6133 | 484 | -7.9 | -10.7 | ||
| 2001-07-28T23:27 | 6393 | 468 | -9.1 | -10.5 | ||
| 2001-07-28T23:29 | 6815 | 443 | -10.5 | -14.1 | ||
| 2001-07-28T23:31 | 7600 | 400 | -16.1 | -18.1 | 260 | 19 |
| 2001-07-28T23:33 | 8042 | 377 | -18.9 | -20.4 | ||
| 2001-07-28T23:35 | 8716 | 344 | -23.7 | -27.4 | ||
| 2001-07-28T23:36 | 8930 | 334 | -25.1 | -27.0 | ||
| 2001-07-28T23:36 | 9128 | 325 | -25.9 | -29.9 | ||
| 2001-07-28T23:38 | 9700 | 300 | -30.7 | -40.7 | 255 | 26 |
| 2001-07-28T23:39 | 10037 | 286 | -33.1 | -39.1 | ||
| 2001-07-28T23:42 | 10970 | 250 | -40.9 | -50.9 | 255 | 31 |
| 2001-07-28T23:45 | 11617 | 227 | -46.5 | -52.5 | ||
| 2001-07-28T23:47 | 12450 | 200 | -53.3 | -60.3 | 250 | 31 |
| 2001-07-28T23:50 | 13224 | 177 | -59.3 | -66.3 | ||
| 2001-07-28T23:53 | 14250 | 150 | -64.7 | -71.7 | 260 | 27 |
| 2001-07-29T00:01 | 16724 | 100 | -64.9 | -72.9 | 300 | 5 |
| 2001-07-29T11:03 | 178 | 993 | 20.8 | 20.6 | 240 | 2 |
| 2001-07-29T11:04 | 389 | 969 | 23.6 | 21.0 | ||
| 2001-07-29T11:05 | 802 | 925 | 21.0 | 20.4 | 310 | 6 |
| 2001-07-29T11:07 | 1326 | 870 | 17.4 | 16.1 | ||
| 2001-07-29T11:07 | 1453 | 857 | 17.2 | 13.2 | ||
| 2001-07-29T11:07 | 1530 | 850 | 16.8 | 14.1 | 285 | 6 |
| 2001-07-29T11:08 | 1823 | 821 | 15.2 | 12.2 | ||
| 2001-07-29T11:09 | 2072 | 797 | 13.8 | 6.8 | ||
| 2001-07-29T11:09 | 2126 | 792 | 14.2 | -2.8 | ||
| 2001-07-29T11:10 | 2350 | 771 | 12.0 | 0.0 | ||
| 2001-07-29T11:10 | 2404 | 766 | 12.4 | -6.6 | ||
| 2001-07-29T11:11 | 2690 | 740 | 9.4 | 0.4 | ||
| 2001-07-29T11:12 | 2826 | 728 | 11.0 | -22.0 | ||
| 2001-07-29T11:13 | 3160 | 700 | 9.2 | -23.8 | 320 | 8 |
| 2001-07-29T11:14 | 3545 | 668 | 8.4 | -28.6 | ||
| 2001-07-29T11:22 | 5870 | 500 | -7.7 | -46.7 | 305 | 8 |
| 2001-07-29T11:23 | 6266 | 475 | -10.1 | -48.1 | ||
| 2001-07-29T11:23 | 6429 | 465 | -11.5 | -28.5 | ||
| 2001-07-29T11:25 | 6934 | 435 | -16.5 | -30.5 | ||
| 2001-07-29T11:27 | 7560 | 400 | -20.3 | -45.3 | 305 | 10 |
| 2001-07-29T11:29 | 8111 | 371 | -24.3 | -50.3 | ||
| 2001-07-29T11:34 | 9630 | 300 | -32.7 | -63.7 | 280 | 21 |
| 2001-07-29T11:36 | 10186 | 277 | -35.9 | -65.9 | ||
| 2001-07-29T11:37 | 10414 | 268 | -37.7 | -52.7 | ||
| 2001-07-29T11:38 | 10900 | 250 | -40.9 | -56.9 | 285 | 27 |
| 2001-07-29T11:42 | 12126 | 208 | -48.7 | -71.7 | ||
| 2001-07-29T11:43 | 12380 | 200 | -51.3 | -74.3 | 280 | 33 |
| 2001-07-29T11:49 | 14190 | 150 | -65.1 | -82.1 | 280 | 28 |
| 2001-07-29T11:54 | 15786 | 115 | -69.7 | -83.7 | ||
| 2001-07-29T11:57 | 16630 | 100 | -65.9 | -79.9 | 275 | 8 |
| 2001-07-29T23:08 | 178 | 993 | 32.0 | 20.0 | 280 | 4 |
| 2001-07-29T23:08 | 277 | 982 | 29.4 | 18.4 | ||
| 2001-07-29T23:10 | 803 | 925 | 24.4 | 17.4 | 295 | 3 |
| 2001-07-29T23:12 | 1341 | 869 | 18.8 | 16.2 | ||
| 2001-07-29T23:12 | 1536 | 850 | 18.0 | 13.0 | 295 | 3 |
| 2001-07-29T23:13 | 1809 | 823 | 15.8 | 11.2 | ||
| 2001-07-29T23:14 | 1943 | 810 | 15.4 | 8.4 | ||
| 2001-07-29T23:14 | 2059 | 799 | 17.0 | -1.0 | ||
| 2001-07-29T23:14 | 2112 | 794 | 17.4 | 0.4 | ||
| 2001-07-29T23:15 | 2449 | 763 | 15.2 | 2.2 | ||
| 2001-07-29T23:16 | 2695 | 741 | 14.2 | -4.8 | ||
| 2001-07-29T23:18 | 3179 | 700 | 10.0 | -14.0 | 5 | 5 |
| 2001-07-29T23:21 | 4170 | 620 | 3.0 | -35.0 | ||
| 2001-07-29T23:25 | 5486 | 525 | -7.3 | -38.3 | ||
| 2001-07-29T23:26 | 5605 | 517 | -7.5 | -33.5 | ||
| 2001-07-29T23:26 | 5635 | 515 | -7.7 | -21.7 | ||
| 2001-07-29T23:26 | 5741 | 508 | -8.7 | -17.7 | ||
| 2001-07-29T23:27 | 5870 | 500 | -8.1 | -26.1 | 295 | 15 |
| 2001-07-29T23:27 | 5979 | 493 | -7.9 | -40.9 | ||
| 2001-07-29T23:28 | 6234 | 477 | -9.9 | -27.9 | ||
| 2001-07-29T23:28 | 6348 | 470 | -9.5 | -41.5 | ||
| 2001-07-29T23:32 | 7570 | 400 | -19.9 | -36.9 | 305 | 21 |
| 2001-07-29T23:37 | 9033 | 327 | -29.1 | -61.1 | ||
| 2001-07-29T23:39 | 9502 | 306 | -32.9 | -51.9 | ||
| 2001-07-29T23:39 | 9650 | 300 | -32.3 | -58.3 | 295 | 29 |
| 2001-07-29T23:40 | 9840 | 292 | -33.3 | -64.3 | ||
| 2001-07-29T23:43 | 10910 | 250 | -42.3 | -62.3 | 295 | 34 |
| 2001-07-29T23:48 | 12390 | 200 | -52.7 | -71.7 | 290 | 38 |
| 2001-07-29T23:52 | 13534 | 167 | -60.9 | -77.9 | ||
| 2001-07-29T23:54 | 14190 | 150 | -63.9 | -80.9 | 285 | 30 |
| 2001-07-30T00:01 | 16297 | 106 | -66.7 | -85.7 | ||
| 2001-07-30T00:02 | 16650 | 100 | -65.5 | -84.5 | 290 | 6 |
| 2001-07-30T11:00 | 178 | 995 | 19.6 | 18.4 | 190 | 3 |
| 2001-07-30T11:00 | 213 | 991 | 23.4 | 19.8 | ||
| 2001-07-30T11:00 | 292 | 982 | 26.0 | 20.0 | ||
| 2001-07-30T11:01 | 399 | 970 | 26.4 | 18.4 | ||
| 2001-07-30T11:02 | 820 | 925 | 23.0 | 18.2 | 265 | 3 |
| 2001-07-30T11:04 | 1376 | 867 | 18.6 | 15.1 | ||
| 2001-07-30T11:04 | 1505 | 854 | 19.2 | 8.2 | ||
| 2001-07-30T11:05 | 1552 | 850 | 19.0 | 7.0 | 345 | 2 |
| 2001-07-30T11:05 | 1694 | 836 | 18.6 | 5.6 | ||
| 2001-07-30T11:05 | 1745 | 831 | 19.0 | -4.0 | ||
| 2001-07-30T11:05 | 1838 | 822 | 19.0 | 2.0 | ||
| 2001-07-30T11:06 | 2133 | 794 | 17.4 | 4.4 | ||
| 2001-07-30T11:09 | 2930 | 722 | 10.8 | 0.8 | ||
| 2001-07-30T11:10 | 3197 | 700 | 9.6 | -4.4 | 360 | 3 |
| 2001-07-30T11:11 | 3643 | 663 | 7.2 | -12.8 | ||
| 2001-07-30T11:13 | 4278 | 613 | 1.6 | -13.4 | ||
| 2001-07-30T11:15 | 4721 | 580 | 0.0 | -20.0 | ||
| 2001-07-30T11:16 | 4999 | 560 | -2.9 | -19.9 | ||
| 2001-07-30T11:17 | 5300 | 539 | -4.3 | -36.3 | ||
| 2001-07-30T11:19 | 5900 | 500 | -8.3 | -41.3 | 320 | 6 |
| 2001-07-30T11:20 | 6231 | 479 | -10.3 | -44.3 | ||
| 2001-07-30T11:20 | 6426 | 467 | -10.5 | -39.5 | ||
| 2001-07-30T11:24 | 7590 | 400 | -20.3 | -47.3 | 335 | 7 |
| 2001-07-30T11:27 | 8499 | 353 | -27.7 | -53.7 | ||
| 2001-07-30T11:30 | 9309 | 315 | -31.7 | -59.7 | ||
| 2001-07-30T11:31 | 9660 | 300 | -33.7 | -45.7 | 310 | 20 |
| 2001-07-30T11:34 | 10513 | 265 | -41.5 | -46.5 | ||
| 2001-07-30T11:35 | 10910 | 250 | -44.1 | -50.1 | 305 | 24 |
| 2001-07-30T11:40 | 12370 | 200 | -53.5 | -60.5 | 290 | 27 |
| 2001-07-30T11:41 | 12764 | 188 | -56.9 | -64.9 | ||
| 2001-07-30T11:46 | 14170 | 150 | -62.7 | -72.7 | 285 | 23 |
| 2001-07-30T11:52 | 16102 | 109 | -69.1 | -80.1 | ||
| 2001-07-30T11:54 | 16620 | 100 | -64.1 | -76.1 | 305 | 10 |
| 2001-07-30T23:08 | 178 | 995 | 31.4 | 22.4 | 200 | 4 |
| 2001-07-30T23:10 | 829 | 925 | 27.2 | 21.2 | 175 | 7 |
| 2001-07-30T23:11 | 1069 | 900 | 25.4 | 14.4 | ||
| 2001-07-30T23:11 | 1166 | 890 | 24.6 | 4.6 | ||
| 2001-07-30T23:12 | 1434 | 863 | 24.2 | 2.2 | ||
| 2001-07-30T23:13 | 1571 | 850 | 23.2 | 3.2 | 195 | 5 |
| 2001-07-30T23:16 | 2660 | 748 | 14.0 | 1.0 | ||
| 2001-07-30T23:17 | 2991 | 719 | 12.2 | -11.8 | ||
| 2001-07-30T23:18 | 3223 | 700 | 11.8 | -8.2 | 20 | 6 |
| 2001-07-30T23:19 | 3439 | 682 | 9.8 | -1.2 | ||
| 2001-07-30T23:19 | 3635 | 666 | 8.6 | -6.4 | ||
| 2001-07-30T23:23 | 4861 | 572 | -2.9 | -10.9 | ||
| 2001-07-30T23:24 | 5014 | 561 | -3.5 | -21.5 | ||
| 2001-07-30T23:27 | 5930 | 500 | -7.1 | -39.1 | 350 | 4 |
| 2001-07-30T23:32 | 7620 | 400 | -19.7 | -44.7 | 305 | 10 |
| 2001-07-30T23:34 | 8017 | 379 | -22.9 | -36.9 | ||
| 2001-07-30T23:34 | 8114 | 374 | -23.1 | -33.1 | ||
| 2001-07-30T23:38 | 9327 | 316 | -30.1 | -47.1 | ||
| 2001-07-30T23:39 | 9700 | 300 | -33.1 | -49.1 | 315 | 12 |
| 2001-07-30T23:43 | 10738 | 258 | -41.9 | -51.9 | ||
| 2001-07-30T23:43 | 10950 | 250 | -43.1 | -54.1 | 320 | 12 |
| 2001-07-30T23:48 | 12410 | 200 | -56.1 | -66.1 | 305 | 15 |
| 2001-07-30T23:54 | 14200 | 150 | -64.9 | -71.9 | 295 | 21 |
| 2001-07-30T23:58 | 15560 | 120 | -64.1 | -72.1 | ||
| 2001-07-31T00:02 | 16660 | 100 | -66.1 | -76.1 | 315 | 5 |
| 2001-07-31T11:02 | 178 | 999 | 21.0 | 20.7 | 140 | 2 |
| 2001-07-31T11:02 | 213 | 995 | 23.6 | 21.3 | ||
| 2001-07-31T11:03 | 408 | 973 | 26.6 | 19.6 | ||
| 2001-07-31T11:03 | 599 | 952 | 25.6 | 18.6 | ||
| 2001-07-31T11:04 | 855 | 925 | 23.2 | 20.4 | 210 | 7 |
| 2001-07-31T11:05 | 1082 | 901 | 21.0 | 21.0 | ||
| 2001-07-31T11:06 | 1402 | 868 | 20.2 | 13.2 | ||
| 2001-07-31T11:06 | 1481 | 860 | 21.2 | 3.2 | ||
| 2001-07-31T11:07 | 1589 | 850 | 21.0 | 4.0 | 185 | 3 |
| 2001-07-31T11:07 | 1732 | 836 | 20.6 | 1.6 | ||
| 2001-07-31T11:08 | 2118 | 799 | 17.6 | 3.6 | ||
| 2001-07-31T11:10 | 2663 | 749 | 13.8 | -4.2 | ||
| 2001-07-31T11:11 | 2923 | 726 | 11.4 | 4.4 | ||
| 2001-07-31T11:11 | 3073 | 713 | 11.6 | -2.4 | ||
| 2001-07-31T11:12 | 3236 | 700 | 10.8 | -2.2 | 140 | 5 |
| 2001-07-31T11:15 | 4036 | 635 | 5.4 | -8.6 | ||
| 2001-07-31T11:19 | 5310 | 541 | -7.1 | -13.1 | ||
| 2001-07-31T11:19 | 5426 | 533 | -7.1 | -19.1 | ||
| 2001-07-31T11:21 | 5930 | 500 | -8.7 | -31.7 | 100 | 4 |
| 2001-07-31T11:21 | 6023 | 494 | -8.5 | -33.5 | ||
| 2001-07-31T11:25 | 7097 | 429 | -16.5 | -41.5 | ||
| 2001-07-31T11:25 | 7345 | 415 | -18.1 | -29.1 | ||
| 2001-07-31T11:26 | 7620 | 400 | -19.7 | -35.7 | 285 | 7 |
| 2001-07-31T11:27 | 7921 | 384 | -21.5 | -31.5 | ||
| 2001-07-31T11:30 | 8635 | 348 | -28.1 | -39.1 | ||
| 2001-07-31T11:31 | 8929 | 334 | -27.9 | -55.9 | ||
| 2001-07-31T11:33 | 9700 | 300 | -33.7 | -60.7 | 320 | 18 |
| 2001-07-31T11:37 | 10950 | 250 | -41.9 | -66.9 | 340 | 23 |
| 2001-07-31T11:42 | 12430 | 200 | -52.7 | -74.7 | 340 | 21 |
| 2001-07-31T11:46 | 13680 | 164 | -62.1 | -79.1 | ||
| 2001-07-31T11:48 | 14230 | 150 | -64.3 | -81.3 | 330 | 20 |
| 2001-07-31T11:50 | 14912 | 134 | -68.1 | -84.1 | ||
| 2001-07-31T11:52 | 15331 | 125 | -65.5 | -81.5 | ||
| 2001-07-31T11:56 | 16670 | 100 | -72.1 | -86.1 | 345 | 7 |
